Data for 09/30/2010

Time Sea-Level Adjusted Pressure Absolute Pressure Temperature Relative Humidity Dew Point Precipitation   
(mb) (inHg) (mb) (inHg) (C) (F) (%) (C) (F) (mm) (in)
00:01 1023 30.21 853 25.19 13.6 56.6 57 5.4 41.7 14.01 0.552
00:02 1023 30.21 853 25.19 13.7 56.6 57 5.5 41.8 14.01 0.552
00:03 1023 30.21 853 25.19 13.7 56.6 57 5.4 41.8 13.98 0.55
00:04 1023 30.21 853 25.19 13.6 56.5 57 5.4 41.7 13.96 0.55
00:05 1023 30.21 853 25.19 13.6 56.5 58 5.6 42.1 13.92 0.548
00:06 1023 30.21 853 25.19 13.5 56.3 58 5.5 41.9 13.86 0.546
00:07 1023 30.21 853 25.19 13.5 56.3 58 5.4 41.7 13.83 0.544
00:08 1023 30.21 853 25.19 13.5 56.3 57 5.3 41.6 13.85 0.545
00:09 1023 30.21 853 25.19 13.5 56.4 58 5.5 41.9 13.88 0.546
00:10 1023 30.21 853 25.19 13.5 56.2 58 5.5 41.8 13.84 0.545
00:11 1023 30.21 853 25.19 13.4 56.2 58 5.4 41.7 13.84 0.545
00:12 1023 30.21 853 25.19 13.5 56.3 57 5.3 41.6 13.84 0.545
00:13 1023 30.21 853 25.19 13.5 56.4 58 5.4 41.8 13.91 0.548
00:14 1023 30.21 853 25.19 13.5 56.3 58 5.4 41.7 13.89 0.547
00:15 1023 30.21 853 25.19 13.5 56.3 58 5.4 41.7 13.87 0.546
00:16 1023 30.21 853 25.19 13.5 56.3 58 5.4 41.7 13.86 0.546
00:17 1023 30.21 853 25.19 13.5 56.3 58 5.4 41.8 13.88 0.546
00:18 1023 30.21 853 25.19 13.5 56.2 58 5.4 41.8 13.79 0.543
00:19 1023 30.21 853 25.19 13.4 56.1 58 5.4 41.8 13.76 0.542
00:20 1023 30.21 853 25.19 13.4 56 58 5.3 41.6 13.73 0.541
00:21 1023 30.21 853 25.19 13.4 56.1 59 5.6 42 13.7 0.539
00:22 1023 30.21 853 25.19 13.3 56 58 5.4 41.7 13.67 0.538
00:23 1023 30.21 853 25.19 13.3 56 58 5.4 41.7 13.68 0.539
00:24 1023 30.21 853 25.19 13.3 55.9 59 5.4 41.8 13.64 0.537
00:25 1023 30.21 853 25.19 13.3 55.9 59 5.4 41.7 13.63 0.537
00:26 1023 30.21 853 25.19 13.3 55.9 58 5.4 41.7 13.63 0.537
00:27 1023 30.21 853 25.19 13.3 55.9 58 5.3 41.6 13.61 0.536
00:28 1023 30.21 853 25.19 13.2 55.8 58 5.3 41.5 13.59 0.535
00:29 1023 30.21 853 25.19 13.3 56 58 5.2 41.4 13.68 0.539
00:30 1023 30.21 853 25.19 13.4 56.1 58 5.3 41.6 13.74 0.541
00:31 1023 30.21 853 25.19 13.4 56.1 58 5.4 41.6 13.74 0.541
00:32 1023 30.21 853 25.19 13.4 56.1 58 5.3 41.5 13.76 0.542
00:33 1023 30.21 853 25.19 13.4 56.1 58 5.3 41.6 13.74 0.541
00:34 1023 30.21 853 25.19 13.3 56 57 5.1 41.2 13.75 0.541
00:35 1023 30.21 853 25.19 13.4 56 58 5.3 41.5 13.78 0.543
00:36 1023 30.21 853 25.19 13.4 56.1 58 5.3 41.5 13.68 0.539
00:37 1023 30.21 853 25.19 13.3 56 58 5.2 41.3 13.7 0.539
00:38 1023 30.21 853 25.19 13.3 55.9 58 5.2 41.4 13.67 0.538
00:39 1023 30.21 853 25.19 13.3 55.9 58 5.2 41.4 13.65 0.537
00:40 1023 30.21 853 25.19 13.3 55.9 58 5.2 41.4 13.62 0.536
00:41 1023 30.21 853 25.19 13.3 55.9 57 5.1 41.1 13.67 0.538
00:42 1023 30.21 853 25.19 13.4 56.1 57 5.2 41.3 13.72 0.54
00:43 1023 30.21 853 25.19 13.3 56 58 5.3 41.5 13.67 0.538
00:44 1023 30.21 853 25.19 13.2 55.8 58 5.2 41.4 13.56 0.534
00:45 1023 30.21 853 25.19 13.2 55.7 58 5.1 41.2 13.53 0.533
00:46 1023 30.21 853 25.19 13.2 55.7 58 5.2 41.3 13.5 0.531
00:47 1023 30.21 853 25.19 13.1 55.6 59 5.3 41.5 13.46 0.53
00:48 1023 30.21 853 25.19 13 55.3 60 5.3 41.6 13.34 0.525
00:49 1023 30.21 853 25.19 12.9 55.1 60 5.4 41.7 13.19 0.519
00:50 1023 30.21 852 25.16 12.7 54.9 60 5.3 41.6 13.11 0.516
00:51 1023 30.21 852 25.16 12.7 54.8 60 5.2 41.3 13.05 0.514
00:52 1023 30.21 852 25.16 12.7 54.8 60 5.2 41.3 13.09 0.515
00:53 1023 30.21 852 25.16 12.7 54.9 59 5.1 41.2 13.11 0.516
00:54 1023 30.21 852 25.16 12.8 55 59 5.1 41.2 13.13 0.517
00:55 1023 30.21 852 25.16 12.8 55 60 5.3 41.5 13.1 0.516
00:56 1023 30.21 852 25.16 12.6 54.7 61 5.3 41.6 12.97 0.511
00:57 1023 30.21 852 25.16 12.5 54.5 61 5.2 41.3 12.84 0.506
00:58 1023 30.21 852 25.16 12.5 54.5 60 5.1 41.2 12.91 0.508
00:59 1023 30.21 852 25.16 12.5 54.5 61 5.1 41.3 12.87 0.507
01:00 1023 30.21 852 25.16 12.5 54.5 61 5.1 41.2 12.84 0.506
01:01 1023 30.21 852 25.16 12.4 54.4 61 5.2 41.4 12.82 0.505
01:02 1023 30.21 852 25.16 12.4 54.4 61 5.1 41.2 12.78 0.503
01:03 1023 30.21 852 25.16 12.4 54.4 61 5.1 41.1 12.8 0.504
01:04 1023 30.21 852 25.16 12.4 54.4 60 5.1 41.1 12.8 0.504
01:05 1023 30.21 852 25.16 12.5 54.4 61 5.2 41.3 12.84 0.506
01:06 1023 30.21 852 25.16 12.4 54.3 61 5.2 41.3 12.78 0.503
01:07 1023 30.21 852 25.16 12.4 54.4 61 5.2 41.3 12.75 0.502
01:08 1023 30.21 852 25.16 12.4 54.4 61 5.2 41.4 12.81 0.504
01:09 1023 30.21 852 25.16 12.3 54.1 62 5.2 41.4 12.68 0.499
01:10 1023 30.21 852 25.16 12.2 53.9 62 5.2 41.4 12.5 0.492
01:11 1023 30.21 852 25.16 12 53.7 62 5.1 41.1 12.41 0.489
01:12 1023 30.21 852 25.16 12.2 54 61 5 40.9 12.64 0.498
01:13 1023 30.21 852 25.16 12.4 54.3 61 5 41 12.79 0.504
01:14 1023 30.21 852 25.16 12.5 54.4 61 5.1 41.2 12.79 0.504
01:15 1023 30.21 852 25.16 12.4 54.3 62 5.3 41.6 12.68 0.499
01:16 1023 30.21 852 25.16 12.1 53.7 63 5.2 41.4 12.43 0.489
01:17 1023 30.21 852 25.16 11.7 53 64 5.2 41.3 12.1 0.476
01:18 1023 30.21 852 25.16 11.4 52.5 65 5.1 41.2 11.83 0.466
01:19 1023 30.21 852 25.16 11.1 52.1 66 5.1 41.1 11.59 0.456
01:20 1023 30.21 852 25.16 11.1 52 66 5.1 41.2 11.48 0.452
01:21 1023 30.21 852 25.16 11 51.8 67 5 41.1 11.36 0.447
01:22 1023 30.21 852 25.16 10.9 51.6 67 5 41 11.27 0.444
01:23 1023 30.21 852 25.16 10.8 51.5 67 5 40.9 11.19 0.441
01:24 1023 30.21 852 25.16 10.8 51.4 67 5 40.9 11.14 0.439
01:25 1023 30.21 852 25.16 10.9 51.6 66 4.8 40.7 11.24 0.443
01:26 1023 30.21 852 25.16 11 51.7 66 4.8 40.7 11.34 0.446
01:27 1023 30.21 852 25.16 11 51.8 66 4.8 40.7 11.31 0.445
01:28 1023 30.21 852 25.16 11 51.7 66 4.8 40.7 11.3 0.445
01:29 1023 30.21 852 25.16 11 51.7 66 4.8 40.7 11.38 0.448
01:30 1023 30.21 852 25.16 11.2 52.1 65 4.8 40.6 11.64 0.458
01:31 1023 30.21 852 25.16 11.5 52.7 63 4.9 40.8 11.94 0.47
01:32 1023 30.21 852 25.16 11.5 52.7 64 4.9 40.8 11.91 0.469
01:33 1023 30.21 852 25.16 11.6 52.8 64 4.9 40.9 11.9 0.469
01:34 1023 30.21 852 25.16 11.7 53 63 4.9 40.8 12.06 0.475
01:35 1023 30.21 852 25.16 11.8 53.3 63 5 41 12.19 0.48
01:36 1023 30.21 852 25.16 11.8 53.2 63 4.9 40.9 12.15 0.478
01:37 1023 30.21 852 25.16 11.8 53.2 63 5 41.1 12.04 0.474
01:38 1023 30.21 852 25.16 11.6 52.9 64 5 41 11.92 0.469
01:39 1023 30.21 852 25.16 11.6 52.9 63 4.9 40.7 11.94 0.47
01:40 1023 30.21 852 25.16 11.7 53 63 4.9 40.7 12 0.472
01:41 1023 30.21 852 25.16 11.7 53.1 63 4.9 40.7 12.02 0.473
01:42 1023 30.21 852 25.16 11.7 53.1 63 4.9 40.8 11.98 0.472
01:43 1023 30.21 852 25.16 11.7 53 63 4.9 40.9 11.92 0.469
01:44 1023 30.21 852 25.16 11.5 52.6 63 4.8 40.6 11.79 0.464
01:45 1023 30.21 852 25.16 11.4 52.6 63 4.8 40.6 11.74 0.462
01:46 1023 30.21 852 25.16 11.4 52.6 63 4.7 40.4 11.84 0.466
01:47 1023 30.21 852 25.16 11.4 52.6 63 4.7 40.5 11.77 0.463
01:48 1023 30.21 852 25.16 11.4 52.6 63 4.8 40.6 11.75 0.463
01:49 1023 30.21 852 25.16 11.4 52.5 63 4.7 40.5 11.72 0.461
01:50 1023 30.21 852 25.16 11.2 52.1 65 4.8 40.6 11.48 0.452
01:51 1023 30.21 852 25.16 11 51.8 65 4.7 40.5 11.35 0.447
01:52 1023 30.21 852 25.16 10.8 51.4 66 4.7 40.4 11.13 0.438
01:53 1023 30.21 852 25.16 10.6 51 67 4.7 40.5 10.94 0.431
01:54 1023 30.21 852 25.16 10.6 51.1 66 4.6 40.2 11 0.433
01:55 1023 30.21 852 25.16 10.7 51.2 66 4.6 40.3 11.02 0.434
01:56 1023 30.21 852 25.16 10.7 51.3 65 4.6 40.2 11.02 0.434
01:57 1023 30.21 852 25.16 10.7 51.2 66 4.5 40.2 11.03 0.434
01:58 1023 30.21 852 25.16 10.7 51.3 66 4.6 40.3 11.04 0.435
01:59 1023 30.21 852 25.16 10.7 51.3 66 4.7 40.4 11.06 0.435
02:00 1023 30.21 852 25.16 10.6 51.2 66 4.7 40.4 10.95 0.431
02:01 1023 30.21 852 25.16 10.5 50.8 66 4.5 40.1 10.81 0.426
02:02 1023 30.21 852 25.16 10.3 50.5 68 4.6 40.3 10.63 0.419
02:03 1023 30.21 852 25.16 10.3 50.5 68 4.6 40.4 10.67 0.42
02:04 1023 30.21 852 25.16 10.5 50.9 67 4.6 40.3 10.87 0.428
02:05 1023 30.21 852 25.16 10.7 51.3 66 4.6 40.4 11.05 0.435
02:06 1023 30.21 852 25.16 10.8 51.4 66 4.7 40.5 11.09 0.437
02:07 1023 30.21 852 25.16 10.8 51.4 66 4.7 40.5 11.1 0.437
02:08 1023 30.21 852 25.16 10.6 51.1 67 4.8 40.6 10.94 0.431
02:09 1023 30.21 852 25.16 10.6 51.1 67 4.7 40.5 10.94 0.431
02:10 1023 30.21 852 25.16 10.7 51.2 66 4.7 40.5 11.06 0.435
02:11 1023 30.21 852 25.16 11 51.8 65 4.7 40.4 11.38 0.448
02:12 1023 30.21 852 25.16 11.3 52.4 64 4.9 40.8 11.72 0.461
02:13 1023 30.21 852 25.16 11.5 52.7 64 4.9 40.9 11.86 0.467
02:14 1023 30.21 852 25.16 11.5 52.8 64 5 41 11.85 0.467
02:15 1023 30.21 852 25.16 11.4 52.5 64 5 41 11.72 0.461
02:16 1023 30.21 852 25.16 11.4 52.4 65 5 41 11.71 0.461
02:17 1023 30.21 852 25.16 11.3 52.3 65 4.9 40.8 11.67 0.459
02:18 1023 30.21 852 25.16 11.3 52.4 65 4.9 40.9 11.66 0.459
02:19 1023 30.21 852 25.16 11.3 52.4 65 4.9 40.9 11.69 0.46
02:20 1023 30.21 852 25.16 11.3 52.3 65 5 40.9 11.64 0.458
02:21 1023 30.21 852 25.16 11.2 52.1 65 4.9 40.8 11.48 0.452
02:22 1023 30.21 852 25.16 11.1 52.1 65 4.9 40.9 11.48 0.452
02:23 1023 30.21 852 25.16 11.1 52 65 4.9 40.8 11.49 0.452
02:24 1023 30.21 852 25.16 11.2 52.1 65 4.8 40.7 11.58 0.456
02:25 1023 30.21 852 25.16 11.2 52.2 65 4.9 40.9 11.59 0.456
02:26 1023 30.21 852 25.16 11.2 52.2 64 4.8 40.6 11.62 0.457
02:27 1023 30.21 852 25.16 11.4 52.6 63 4.8 40.6 11.89 0.468
02:28 1023 30.21 852 25.16 11.7 53 63 4.9 40.7 12.1 0.476
02:29 1023 30.21 852 25.16 11.8 53.2 62 4.8 40.6 12.18 0.48
02:30 1023 30.21 852 25.16 12 53.5 62 5 41 12.33 0.485
02:31 1023 30.21 852 25.16 11.9 53.5 62 4.9 40.8 12.32 0.485
02:32 1023 30.21 852 25.16 12 53.5 61 4.8 40.7 12.35 0.486
02:33 1023 30.21 852 25.16 12 53.7 62 5 40.9 12.41 0.489
02:34 1023 30.21 852 25.16 12 53.7 61 4.9 40.8 12.41 0.489
02:35 1023 30.21 852 25.16 12.1 53.8 62 5 41 12.47 0.491
02:36 1023 30.21 852 25.16 12.1 53.8 61 4.8 40.7 12.42 0.489
02:37 1023 30.21 852 25.16 12.2 53.9 61 4.9 40.9 12.53 0.493
02:38 1023 30.21 852 25.16 12.1 53.9 61 4.9 40.8 12.54 0.494
02:39 1023 30.21 852 25.16 12.2 54 61 4.9 40.9 12.59 0.496
02:40 1023 30.21 852 25.16 12.2 54 61 4.9 40.8 12.58 0.495
02:41 1023 30.21 852 25.16 12.2 54 61 5 41 12.55 0.494
02:42 1023 30.21 852 25.16 12.1 53.9 61 4.9 40.8 12.5 0.492
02:43 1023 30.21 852 25.16 12.1 53.7 62 5 40.9 12.44 0.49
02:44 1023 30.21 852 25.16 12.1 53.7 61 4.9 40.8 12.43 0.489
02:45 1023 30.21 852 25.16 12.1 53.7 61 4.9 40.8 12.47 0.491
02:46 1023 30.21 852 25.16 12.1 53.7 61 4.8 40.7 12.43 0.489
02:47 1023 30.21 852 25.16 12.1 53.7 62 5 40.9 12.4 0.488
02:48 1023 30.21 852 25.16 12 53.6 62 5 40.9 12.3 0.484
02:49 1023 30.21 852 25.16 11.9 53.5 62 4.8 40.7 12.29 0.484
02:50 1023 30.21 853 25.19 11.5 52.7 63 4.8 40.7 11.93 0.47
02:51 1023 30.21 853 25.19 10.9 51.6 64 4.5 40.1 11.4 0.449
02:52 1023 30.21 853 25.19 10.3 50.5 67 4.4 40 10.81 0.426
02:53 1023 30.21 852 25.16 9.8 49.7 68 4.3 39.7 10.37 0.408
02:54 1023 30.21 852 25.16 9.4 48.9 70 4.2 39.5 10.01 0.394
02:55 1023 30.21 852 25.16 8.9 48 71 4 39.3 9.5 0.374
02:56 1023 30.21 853 25.19 8.4 47.1 73 3.9 39.1 9.03 0.356
02:57 1023 30.21 853 25.19 8 46.5 75 3.9 39 8.69 0.342
02:58 1023 30.21 852 25.16 7.7 45.9 76 3.8 38.9 8.35 0.329
02:59 1023 30.21 852 25.16 7.5 45.4 78 3.8 38.9 8.11 0.319
03:00 1023 30.21 852 25.16 7.5 45.4 78 3.9 38.9 8.01 0.315
03:01 1023 30.21 852 25.16 7.6 45.6 77 3.9 39 8.06 0.317
03:02 1023 30.21 852 25.16 7.6 45.7 77 3.9 39 8.09 0.319
03:03 1023 30.21 852 25.16 7.6 45.7 77 3.9 39 8.07 0.318
03:04 1023 30.21 852 25.16 7.6 45.6 78 4 39.1 7.99 0.315
03:05 1023 30.21 852 25.16 7.5 45.5 78 3.9 39.1 7.92 0.312
03:06 1023 30.21 852 25.16 7.6 45.6 78 3.9 39.1 7.99 0.315
03:07 1023 30.21 852 25.16 7.6 45.6 78 4 39.3 7.96 0.313
03:08 1023 30.21 852 25.16 7.7 45.8 78 4 39.2 8.07 0.318
03:09 1023 30.21 852 25.16 7.7 45.8 77 3.9 39.1 8.06 0.317
03:10 1023 30.21 852 25.16 7.6 45.7 77 3.9 39.1 7.99 0.315
03:11 1023 30.21 852 25.16 7.5 45.5 77 3.8 38.9 7.94 0.313
03:12 1023 30.21 852 25.16 7.5 45.5 78 3.8 38.9 7.85 0.309
03:13 1023 30.21 852 25.16 7.4 45.3 78 3.8 38.8 7.78 0.306
03:14 1023 30.21 852 25.16 7.4 45.3 78 3.8 38.8 7.74 0.305
03:15 1023 30.21 852 25.16 7.3 45.2 78 3.7 38.7 7.71 0.304
03:16 1023 30.21 852 25.16 7.3 45.1 78 3.7 38.7 7.72 0.304
03:17 1023 30.21 852 25.16 7.4 45.3 78 3.7 38.7 7.76 0.306
03:18 1023 30.21 853 25.19 7.4 45.3 78 3.8 38.8 7.8 0.307
03:19 1023 30.21 852 25.16 7.4 45.3 78 3.8 38.8 7.8 0.307
03:20 1023 30.21 852 25.16 7.4 45.3 78 3.8 38.8 7.78 0.306
03:21 1023 30.21 852 25.16 7.4 45.2 78 3.8 38.8 7.72 0.304
03:22 1023 30.21 852 25.16 7.4 45.3 78 3.9 38.9 7.77 0.306
03:23 1023 30.21 852 25.16 7.3 45.2 79 3.9 39 7.73 0.304
03:24 1023 30.21 852 25.16 7.5 45.4 79 4 39.2 7.83 0.308
03:25 1023 30.21 852 25.16 7.6 45.8 78 4 39.3 7.98 0.314
03:26 1023 30.21 852 25.16 7.7 45.8 77 4 39.1 8.05 0.317
03:27 1023 30.21 852 25.16 7.7 45.9 78 4.1 39.3 8.08 0.318
03:28 1023 30.21 852 25.16 7.8 46 78 4.1 39.4 8.09 0.319
03:29 1023 30.21 852 25.16 7.8 46.1 77 4.1 39.4 8.16 0.321
03:30 1023 30.21 852 25.16 7.9 46.2 77 4.2 39.5 8.21 0.323
03:31 1023 30.21 852 25.16 7.9 46.2 77 4.1 39.4 8.21 0.323
03:32 1023 30.21 852 25.16 7.9 46.2 76 3.9 39.1 8.21 0.323
03:33 1023 30.21 852 25.16 8 46.3 75 3.8 38.9 8.27 0.326
03:34 1023 30.21 852 25.16 7.9 46.3 75 3.8 38.8 8.23 0.324
03:35 1023 30.21 852 25.16 7.8 46.1 74 3.6 38.5 8.16 0.321
03:36 1023 30.21 852 25.16 7.6 45.7 75 3.4 38.2 7.95 0.313
03:37 1023 30.21 852 25.16 7.4 45.2 76 3.4 38.1 7.77 0.306
03:38 1023 30.21 852 25.16 7.2 44.9 76 3.3 37.9 7.6 0.299
03:39 1023 30.21 852 25.16 7.1 44.8 76 3.2 37.7 7.51 0.296
03:40 1023 30.21 852 25.16 7 44.6 77 3.2 37.7 7.39 0.291
03:41 1023 30.21 852 25.16 6.8 44.3 77 3.2 37.7 7.22 0.284
03:42 1023 30.21 852 25.16 6.7 44.1 77 3.1 37.5 7.11 0.28
03:43 1023 30.21 852 25.16 6.6 43.9 78 3 37.4 7.03 0.277
03:44 1023 30.21 852 25.16 6.6 43.8 78 3.1 37.5 6.967 0.274
03:45 1023 30.21 852 25.16 6.6 43.8 78 3 37.4 7 0.276
03:46 1023 30.21 852 25.16 6.7 44.1 78 3.2 37.7 7.08 0.279
03:47 1023 30.21 852 25.16 6.8 44.3 77 3.1 37.6 7.18 0.283
03:48 1023 30.21 852 25.16 6.9 44.4 77 3.1 37.6 7.24 0.285
03:49 1023 30.21 852 25.16 6.9 44.4 77 3.1 37.6 7.18 0.283
03:50 1023 30.21 852 25.16 6.7 44 77 3 37.4 7.09 0.279
03:51 1023 30.21 852 25.16 6.6 43.9 77 3 37.4 7.01 0.276
03:52 1023 30.21 852 25.16 6.6 43.8 78 3 37.4 6.936 0.273
03:53 1023 30.21 852 25.16 6.5 43.6 78 3 37.4 6.858 0.27
03:54 1023 30.21 852 25.16 6.5 43.6 79 3.1 37.5 6.818 0.268
03:55 1023 30.21 852 25.16 6.5 43.7 79 3.1 37.6 6.858 0.27
03:56 1023 30.21 852 25.16 6.6 43.9 78 3.1 37.5 6.943 0.273
03:57 1023 30.21 852 25.16 6.6 44 78 3 37.4 6.972 0.274
03:58 1023 30.21 852 25.16 6.8 44.2 78 3.1 37.6 7.08 0.279
03:59 1023 30.21 852 25.16 6.9 44.4 77 3.2 37.8 7.2 0.283
04:00 1023 30.21 852 25.16 7 44.7 77 3.3 38 7.33 0.289
04:01 1023 30.21 852 25.16 7.2 44.9 77 3.4 38.1 7.41 0.292
04:02 1023 30.21 852 25.16 7.3 45.1 77 3.4 38.2 7.54 0.297
04:03 1023 30.21 852 25.16 7.4 45.3 76 3.5 38.2 7.65 0.301
04:04 1023 30.21 852 25.16 7.5 45.5 76 3.6 38.4 7.79 0.307
04:05 1023 30.21 852 25.16 7.7 45.8 75 3.6 38.4 7.95 0.313
04:06 1023 30.21 852 25.16 7.8 46.1 75 3.7 38.7 8.08 0.318
04:07 1023 30.21 852 25.16 7.9 46.2 75 3.7 38.7 8.13 0.32
04:08 1023 30.21 852 25.16 8 46.3 75 3.8 38.8 8.22 0.324
04:09 1023 30.21 852 25.16 7.9 46.3 75 3.7 38.7 8.23 0.324
04:10 1023 30.21 852 25.16 7.9 46.2 75 3.8 38.8 8.2 0.323
04:11 1023 30.21 852 25.16 7.9 46.2 75 3.8 38.8 8.19 0.322
04:12 1023 30.21 852 25.16 8 46.3 75 3.8 38.9 8.25 0.325
04:13 1023 30.21 852 25.16 8 46.3 75 3.7 38.7 8.24 0.324
04:14 1023 30.21 852 25.16 8 46.3 75 3.8 38.8 8.26 0.325
04:15 1023 30.21 852 25.16 7.9 46.2 75 3.7 38.7 8.26 0.325
04:16 1023 30.21 852 25.16 7.9 46.3 75 3.8 38.8 8.22 0.324
04:17 1023 30.21 852 25.16 7.8 46.1 76 3.9 39 8.2 0.323
04:18 1023 30.21 852 25.16 7.8 46.1 76 3.8 38.8 8.21 0.323
04:19 1023 30.21 852 25.16 7.9 46.3 75 3.8 38.9 8.26 0.325
04:20 1023 30.21 852 25.16 8 46.3 75 3.8 38.8 8.26 0.325
04:21 1023 30.21 852 25.16 7.9 46.3 75 3.7 38.7 8.24 0.324
04:22 1023 30.21 852 25.16 7.9 46.2 75 3.8 38.8 8.24 0.324
04:23 1023 30.21 852 25.16 7.8 46.1 76 3.8 38.8 8.14 0.32
04:24 1023 30.21 852 25.16 7.7 45.9 76 3.8 38.9 8.1 0.319
04:25 1023 30.21 852 25.16 7.6 45.7 77 3.8 38.9 7.99 0.315
04:26 1023 30.21 852 25.16 7.6 45.7 77 3.8 38.8 7.98 0.314
04:27 1023 30.21 852 25.16 7.6 45.7 77 3.8 38.8 7.93 0.312
04:28 1023 30.21 852 25.16 7.6 45.7 77 3.8 38.9 7.95 0.313
04:29 1023 30.21 852 25.16 7.6 45.6 77 3.8 38.9 7.94 0.313
04:30 1023 30.21 852 25.16 7.6 45.7 77 3.9 39 7.94 0.313
04:31 1023 30.21 852 25.16 7.7 45.8 77 3.9 39 8.01 0.315
04:32 1023 30.21 852 25.16 7.8 46 76 3.9 39 8.13 0.32
04:33 1023 30.21 852 25.16 7.8 46.1 76 3.8 38.9 8.13 0.32
04:34 1023 30.21 852 25.16 7.8 46 76 3.8 38.8 8.1 0.319
04:35 1023 30.21 852 25.16 7.7 45.8 76 3.7 38.7 8.01 0.315
04:36 1023 30.21 852 25.16 7.5 45.6 76 3.5 38.3 7.88 0.31
04:37 1023 30.21 852 25.16 7.3 45.2 76 3.4 38.1 7.68 0.302
04:38 1023 30.21 852 25.16 7 44.7 77 3.4 38.1 7.43 0.293
04:39 1023 30.21 852 25.16 6.9 44.3 78 3.3 38 7.27 0.286
04:40 1023 30.21 852 25.16 6.8 44.2 79 3.3 37.9 7.13 0.281
04:41 1023 30.21 852 25.16 6.6 44 80 3.4 38.1 7.04 0.277
04:42 1023 30.21 852 25.16 6.6 43.9 80 3.4 38 7.02 0.276
04:43 1023 30.21 852 25.16 6.6 43.9 80 3.4 38.2 7.01 0.276
04:44 1023 30.21 852 25.16 6.7 44 81 3.6 38.5 7.02 0.276
04:45 1023 30.21 852 25.16 6.8 44.3 80 3.7 38.7 7.15 0.281
04:46 1023 30.21 852 25.16 6.9 44.4 80 3.6 38.5 7.23 0.285
04:47 1023 30.21 852 25.16 6.9 44.4 80 3.6 38.5 7.22 0.284
04:48 1023 30.21 852 25.16 6.9 44.5 79 3.6 38.5 7.25 0.285
04:49 1023 30.21 852 25.16 6.9 44.5 79 3.5 38.3 7.24 0.285
04:50 1023 30.21 852 25.16 6.9 44.5 78 3.3 38 7.29 0.287
04:51 1023 30.21 852 25.16 6.9 44.4 78 3.3 38 7.2 0.283
04:52 1023 30.21 852 25.16 6.8 44.3 77 3.1 37.6 7.17 0.282
04:53 1023 30.21 852 25.16 6.7 44.1 78 3.1 37.6 7.07 0.278
04:54 1023 30.21 852 25.16 6.6 43.9 78 3 37.5 6.971 0.274
04:55 1023 30.21 852 25.16 6.4 43.6 78 2.9 37.2 6.83 0.269
04:56 1023 30.21 852 25.16 6.3 43.3 79 2.9 37.2 6.706 0.264
04:57 1023 30.21 852 25.16 6.1 43 80 2.9 37.2 6.503 0.256
04:58 1023 30.21 852 25.16 6 42.8 81 3 37.3 6.43 0.253
04:59 1023 30.21 852 25.16 6 42.7 80 2.8 37.1 6.384 0.251
05:00 1023 30.21 852 25.16 5.9 42.6 81 2.8 37 6.311 0.248
05:01 1023 30.21 852 25.16 5.8 42.4 81 2.8 37 6.21 0.244
05:02 1023 30.21 852 25.16 5.7 42.2 82 2.8 37.1 6.108 0.24
05:03 1023 30.21 852 25.16 5.7 42.2 82 2.9 37.2 6.08 0.239
05:04 1023 30.21 852 25.16 5.7 42.3 83 3 37.4 6.08 0.239
05:05 1023 30.21 852 25.16 5.9 42.7 83 3.2 37.8 6.295 0.248
05:06 1023 30.21 852 25.16 6.2 43.2 82 3.4 38.1 6.595 0.26
05:07 1023 30.21 852 25.16 6.6 43.8 81 3.5 38.3 6.878 0.271
05:08 1023 30.21 852 25.16 6.8 44.3 80 3.6 38.4 7.09 0.279
05:09 1023 30.21 852 25.16 7 44.6 79 3.7 38.6 7.31 0.288
05:10 1023 30.21 852 25.16 7.2 44.9 78 3.7 38.6 7.46 0.294
05:11 1023 30.21 852 25.16 7.3 45.1 78 3.8 38.8 7.57 0.298
05:12 1023 30.21 852 25.16 7.4 45.3 78 3.8 38.9 7.71 0.304
05:13 1023 30.21 852 25.16 7.6 45.6 77 3.8 38.9 7.87 0.31
05:14 1023 30.21 852 25.16 7.7 45.9 77 3.9 39 8.03 0.316
05:15 1023 30.21 852 25.16 7.8 46.1 74 3.5 38.3 8.07 0.318
05:16 1023 30.21 852 25.16 7.5 45.5 74 3.2 37.8 7.81 0.307
05:17 1023 30.21 852 25.16 7.1 44.8 75 2.9 37.3 7.5 0.295
05:18 1023 30.21 852 25.16 6.8 44.2 75 2.7 36.9 7.17 0.282
05:19 1023 30.21 852 25.16 6.4 43.6 77 2.7 36.8 6.854 0.27
05:20 1023 30.21 852 25.16 6.1 43 78 2.5 36.6 6.588 0.259
05:21 1023 30.21 852 25.16 5.9 42.7 78 2.5 36.4 6.367 0.251
05:22 1023 30.21 852 25.16 5.9 42.5 79 2.5 36.4 6.237 0.246
05:23 1023 30.21 852 25.16 5.8 42.4 79 2.5 36.4 6.192 0.244
05:24 1023 30.21 852 25.16 5.7 42.3 79 2.4 36.3 6.097 0.24
05:25 1023 30.21 852 25.16 5.7 42.2 79 2.3 36.2 6.091 0.24
05:26 1023 30.21 852 25.16 5.6 42.1 79 2.3 36.1 5.961 0.235
05:27 1023 30.21 852 25.16 5.5 41.9 79 2.2 36 5.86 0.231
05:28 1023 30.21 852 25.16 5.2 41.4 80 2 35.6 5.651 0.222
05:29 1023 30.21 852 25.16 4.9 40.9 81 2 35.5 5.357 0.211
05:30 1023 30.21 852 25.16 4.7 40.5 82 1.9 35.4 5.131 0.202
05:31 1023 30.21 852 25.16 4.6 40.3 82 1.8 35.3 4.99 0.196
05:32 1023 30.21 852 25.16 4.5 40 83 1.8 35.3 4.866 0.192
05:33 1023 30.21 852 25.16 4.4 40 83 1.8 35.2 4.855 0.191
05:34 1023 30.21 852 25.16 4.5 40.1 82 1.7 35.1 4.889 0.192
05:35 1023 30.21 852 25.16 4.5 40.1 82 1.7 35.1 4.957 0.195
05:36 1023 30.21 852 25.16 4.6 40.3 82 1.7 35.1 4.974 0.196
05:37 1023 30.21 852 25.16 4.6 40.3 82 1.8 35.2 4.997 0.197
05:38 1023 30.21 852 25.16 4.6 40.3 82 1.8 35.3 4.986 0.196
05:39 1023 30.21 852 25.16 4.6 40.3 82 1.8 35.3 4.975 0.196
05:40 1023 30.21 852 25.16 4.6 40.4 82 1.8 35.2 5.031 0.198
05:41 1023 30.21 852 25.16 4.6 40.4 81 1.7 35.1 5.06 0.199
05:42 1023 30.21 852 25.16 4.7 40.4 81 1.7 35.1 5.043 0.199
05:43 1023 30.21 852 25.16 4.6 40.3 81 1.7 35 5.003 0.197
05:44 1023 30.21 852 25.16 4.5 40 82 1.6 34.9 4.879 0.192
05:45 1023 30.21 852 25.16 4.4 39.9 82 1.6 34.8 4.777 0.188
05:46 1023 30.21 852 25.16 4.2 39.6 83 1.6 34.8 4.636 0.183
05:47 1023 30.21 852 25.16 4.1 39.3 84 1.5 34.8 4.477 0.176
05:48 1023 30.21 852 25.16 4 39.2 84 1.5 34.8 4.398 0.173
05:49 1023 30.21 852 25.16 3.9 38.9 84 1.5 34.6 4.302 0.169
05:50 1023 30.21 852 25.16 3.8 38.8 85 1.5 34.7 4.195 0.165
05:51 1023 30.21 852 25.16 3.7 38.6 85 1.4 34.5 4.11 0.162
05:52 1023 30.21 852 25.16 3.6 38.4 86 1.4 34.6 3.969 0.156
05:53 1023 30.21 852 25.16 3.5 38.4 86 1.4 34.6 3.935 0.155
05:54 1023 30.21 852 25.16 3.6 38.4 86 1.5 34.6 3.98 0.157
05:55 1023 30.21 852 25.16 3.6 38.6 86 1.5 34.7 4.048 0.159
05:56 1023 30.21 852 25.16 3.7 38.6 85 1.4 34.5 4.065 0.16
05:57 1023 30.21 852 25.16 3.6 38.4 85 1.3 34.3 3.986 0.157
05:58 1023 30.21 852 25.16 3.5 38.3 85 1.2 34.2 3.89 0.153
05:59 1023 30.21 852 25.16 3.5 38.3 85 1.3 34.3 3.867 0.152
06:00 1023 30.21 852 25.16 3.5 38.2 85 1.2 34.2 3.884 0.153
06:01 1023 30.21 852 25.16 3.5 38.2 85 1.3 34.3 3.861 0.152
06:02 1023 30.21 852 25.16 3.6 38.4 86 1.4 34.5 3.907 0.154
06:03 1023 30.21 852 25.16 3.7 38.6 85 1.4 34.5 4.014 0.158
06:04 1023 30.21 852 25.16 3.8 38.8 85 1.5 34.7 4.144 0.163
06:05 1023 30.21 852 25.16 4 39.2 84 1.6 34.8 4.382 0.173
06:06 1023 30.21 852 25.16 4.2 39.5 82 1.5 34.6 4.546 0.179
06:07 1023 30.21 852 25.16 4.3 39.7 82 1.5 34.8 4.614 0.182
06:08 1023 30.21 852 25.16 4.3 39.8 83 1.6 35 4.699 0.185
06:09 1023 30.21 852 25.16 4.5 40.1 83 1.8 35.2 4.857 0.191
06:10 1023 30.21 852 25.16 4.6 40.2 83 1.9 35.4 4.936 0.194
06:11 1023 30.21 852 25.16 4.6 40.3 82 1.8 35.2 4.948 0.195
06:12 1023 30.21 852 25.16 4.6 40.2 81 1.7 35 4.931 0.194
06:13 1023 30.21 852 25.16 4.4 40 82 1.7 35 4.835 0.19
06:14 1023 30.21 852 25.16 4.4 39.9 82 1.6 34.9 4.767 0.188
06:15 1023 30.21 852 25.16 4.3 39.7 83 1.7 35.1 4.688 0.185
06:16 1023 30.21 852 25.16 4.3 39.8 82 1.5 34.8 4.671 0.184
06:17 1023 30.21 852 25.16 4.2 39.6 82 1.4 34.6 4.574 0.18
06:18 1023 30.21 852 25.16 4.1 39.3 83 1.5 34.7 4.439 0.175
06:19 1023 30.21 852 25.16 4 39.2 84 1.6 34.8 4.416 0.174
06:20 1023 30.21 852 25.16 4.1 39.3 84 1.6 34.9 4.45 0.175
06:21 1023 30.21 852 25.16 4.1 39.3 84 1.5 34.8 4.473 0.176
06:22 1023 30.21 852 25.16 4.1 39.3 84 1.6 34.9 4.405 0.173
06:23 1023 30.21 852 25.16 4.1 39.3 83 1.5 34.6 4.433 0.175
06:24 1023 30.21 852 25.16 3.9 39.1 83 1.4 34.4 4.275 0.168
06:25 1023 30.21 852 25.16 3.8 38.8 84 1.3 34.4 4.162 0.164
06:26 1023 30.21 852 25.16 3.7 38.6 84 1.3 34.3 4.043 0.159
06:27 1023 30.21 852 25.16 3.6 38.4 85 1.2 34.2 3.941 0.155
06:28 1023 30.21 852 25.16 3.4 38.1 85 1.2 34.1 3.743 0.147
06:29 1023 30.21 852 25.16 3.2 37.8 86 1.2 34.1 3.635 0.143
06:30 1023 30.21 852 25.16 3.2 37.8 87 1.3 34.3 3.624 0.143
06:31 1023 30.21 852 25.16 3.3 37.9 86 1.2 34.2 3.648 0.144
06:32 1023 30.21 852 25.16 3.3 38 86 1.2 34.1 3.665 0.144
06:33 1023 30.21 852 25.16 3.3 38 86 1.1 34.1 3.637 0.143
06:34 1023 30.21 852 25.16 3.3 37.9 87 1.2 34.2 3.61 0.142
06:35 1023 30.21 852 25.16 3.4 38 87 1.4 34.5 3.661 0.144
06:36 1023 30.21 852 25.16 3.5 38.3 86 1.5 34.6 3.796 0.149
06:37 1023 30.21 852 25.16 3.7 38.7 85 1.4 34.5 3.939 0.155
06:38 1023 30.21 852 25.16 3.8 38.8 84 1.2 34.2 3.978 0.157
06:39 1023 30.21 852 25.16 3.7 38.6 84 1.2 34.1 3.899 0.154
06:40 1023 30.21 852 25.16 3.5 38.3 83 1 33.7 3.843 0.151
06:41 1023 30.21 852 25.16 3.4 38.1 84 0.9 33.6 3.651 0.144
06:42 1023 30.21 852 25.16 3.2 37.7 85 0.8 33.5 3.442 0.136
06:43 1023 30.21 852 25.16 3 37.5 86 0.9 33.6 3.312 0.13
06:44 1023 30.21 852 25.16 3 37.3 86 0.9 33.6 3.239 0.128
06:45 1023 30.21 852 25.16 2.9 37.2 86 0.7 33.3 3.165 0.125
06:46 1023 30.21 852 25.16 2.8 37 86 0.6 33.1 3.058 0.12
06:47 1023 30.21 852 25.16 2.6 36.7 86 0.6 33 2.928 0.115
06:48 1023 30.21 852 25.16 2.6 36.6 87 0.6 33.1 2.883 0.114
06:49 1023 30.21 852 25.16 2.5 36.5 87 0.6 33 2.81 0.111
06:50 1023 30.21 852 25.16 2.5 36.4 87 0.6 33 2.826 0.111
06:51 1023 30.21 852 25.16 2.4 36.3 87 0.5 33 2.753 0.108
06:52 1023 30.21 852 25.16 2.4 36.3 88 0.5 32.9 2.732 0.108
06:53 1023 30.21 852 25.16 2.4 36.2 89 0.7 33.2 2.738 0.108
06:54 1023 30.21 852 25.16 2.5 36.4 89 0.8 33.5 2.851 0.112
06:55 1023 30.21 853 25.19 2.6 36.7 89 1 33.8 2.903 0.114
06:56 1023 30.21 853 25.19 2.8 37 88 1 33.9 3.039 0.12
06:57 1023 30.21 853 25.19 3 37.4 88 1.2 34.1 3.271 0.129
06:58 1023 30.21 853 25.19 3.3 37.9 86 1.2 34.2 3.566 0.14
06:59 1023 30.21 853 25.19 3.5 38.2 85 1.2 34.1 3.697 0.146
07:00 1023 30.21 853 25.19 3.4 38.2 82 0.7 33.3 3.68 0.145
07:01 1023 30.21 853 25.19 3.1 37.7 84 0.7 33.3 3.443 0.136
07:02 1023 30.21 853 25.19 3.1 37.6 86 1 33.7 3.386 0.133
07:03 1023 30.21 853 25.19 3.1 37.7 85 0.8 33.5 3.398 0.134
07:04 1023 30.21 853 25.19 3.1 37.6 85 0.8 33.5 3.381 0.133
07:05 1023 30.21 853 25.19 3 37.5 84 0.6 33 3.313 0.13
07:06 1023 30.21 853 25.19 2.8 37 84 0.3 32.6 3.042 0.12
07:07 1023 30.21 853 25.19 2.6 36.6 86 0.5 32.9 2.912 0.115
07:08 1023 30.21 853 25.19 2.5 36.5 86 0.3 32.6 2.833 0.112
07:09 1023 30.21 853 25.19 2.3 36.2 87 0.4 32.7 2.641 0.104
07:10 1023 30.21 853 25.19 2.2 35.9 88 0.4 32.7 2.567 0.101
07:11 1023 30.21 853 25.19 2.2 36 89 0.6 33 2.551 0.1
07:12 1023 30.21 853 25.19 2.3 36.1 89 0.7 33.2 2.619 0.103
07:13 1023 30.21 853 25.19 2.3 36.2 89 0.7 33.2 2.619 0.103
07:14 1023 30.21 853 25.19 2.4 36.3 89 0.8 33.4 2.67 0.105
07:15 1023 30.21 853 25.19 2.5 36.5 89 0.9 33.6 2.772 0.109
07:16 1023 30.21 853 25.19 2.5 36.6 88 0.8 33.4 2.891 0.114
07:17 1023 30.21 853 25.19 2.6 36.7 88 0.8 33.5 2.913 0.115
07:18 1023 30.21 853 25.19 2.6 36.7 88 0.9 33.6 2.931 0.115
07:19 1023 30.21 853 25.19 2.7 36.9 89 1 33.8 3.015 0.119
07:20 1023 30.21 853 25.19 2.9 37.2 88 1.1 33.9 3.253 0.128
07:21 1023 30.21 853 25.19 3.1 37.6 87 1.1 34 3.446 0.136
07:22 1023 30.21 853 25.19 3.3 37.9 86 1.1 34 3.553 0.14
07:23 1023 30.21 853 25.19 3.2 37.8 84 0.7 33.3 3.497 0.138
07:24 1023 30.21 853 25.19 2.9 37.2 85 0.6 33.1 3.203 0.126
07:25 1023 30.21 853 25.19 2.6 36.7 86 0.6 33 2.987 0.118
07:26 1023 30.21 853 25.19 2.5 36.5 88 0.6 33.1 2.835 0.112
07:27 1023 30.21 853 25.19 2.4 36.3 88 0.6 33.1 2.761 0.109
07:28 1023 30.21 853 25.19 2.4 36.3 88 0.6 33 2.807 0.111
07:29 1023 30.21 853 25.19 2.4 36.3 88 0.7 33.2 2.716 0.107
07:30 1023 30.21 853 25.19 2.4 36.3 89 0.7 33.3 2.801 0.11
07:31 1024 30.24 853 25.19 2.5 36.4 88 0.7 33.3 2.846 0.112
07:32 1024 30.24 853 25.19 2.4 36.4 89 0.8 33.4 2.812 0.111
07:33 1024 30.24 853 25.19 2.5 36.6 89 0.9 33.5 2.835 0.112
07:34 1024 30.24 853 25.19 2.6 36.7 89 0.9 33.6 2.971 0.117
07:35 1024 30.24 853 25.19 2.6 36.8 89 0.9 33.7 2.976 0.117
07:36 1024 30.24 853 25.19 2.7 36.8 88 0.9 33.6 3.033 0.119
07:37 1024 30.24 853 25.19 2.7 36.9 88 0.8 33.5 3.027 0.119
07:38 1024 30.24 853 25.19 2.7 36.8 88 0.9 33.6 3.016 0.119
07:39 1024 30.24 853 25.19 2.6 36.8 88 0.9 33.5 3.05 0.12
07:40 1024 30.24 853 25.19 2.7 36.8 88 0.9 33.6 3.061 0.121
07:41 1024 30.24 853 25.19 2.8 37 89 1 33.9 3.124 0.123
07:42 1024 30.24 853 25.19 2.9 37.2 88 1.1 33.9 3.231 0.127
07:43 1024 30.24 853 25.19 3 37.3 88 1.1 34 3.322 0.131
07:44 1024 30.24 853 25.19 3.1 37.6 87 1.2 34.2 3.446 0.136
07:45 1024 30.24 853 25.19 3.3 37.9 87 1.3 34.3 3.588 0.141
07:46 1024 30.24 853 25.19 3.5 38.2 86 1.3 34.4 3.752 0.148
07:47 1024 30.24 853 25.19 3.6 38.5 85 1.4 34.5 3.899 0.154
07:48 1024 30.24 853 25.19 3.7 38.7 85 1.5 34.7 4.007 0.158
07:49 1024 30.24 853 25.19 3.9 39.1 84 1.5 34.7 4.193 0.165
07:50 1024 30.24 853 25.19 4.1 39.4 84 1.6 34.9 4.307 0.17
07:51 1024 30.24 853 25.19 4.2 39.5 83 1.6 34.9 4.454 0.175
07:52 1024 30.24 853 25.19 4.3 39.7 83 1.6 34.9 4.567 0.18
07:53 1024 30.24 853 25.19 4.4 40 82 1.7 35 4.703 0.185
07:54 1024 30.24 853 25.19 4.5 40.1 82 1.7 35 4.839 0.191
07:55 1024 30.24 853 25.19 4.7 40.4 81 1.7 35.1 4.901 0.193
07:56 1024 30.24 853 25.19 4.7 40.4 82 1.8 35.2 4.946 0.195
07:57 1024 30.24 853 25.19 4.7 40.4 82 1.9 35.4 4.924 0.194
07:58 1023 30.21 853 25.19 4.7 40.5 83 2 35.6 5.042 0.199
07:59 1024 30.24 853 25.19 4.8 40.6 82 2 35.6 5.088 0.2
08:00 1023 30.21 853 25.19 4.7 40.5 83 2 35.6 5.054 0.199
08:01 1023 30.21 853 25.19 4.7 40.5 82 2 35.6 5.054 0.199
08:02 1024 30.24 853 25.19 4.8 40.7 82 2.1 35.8 5.144 0.203
08:03 1024 30.24 853 25.19 4.9 40.8 82 2.1 35.8 5.212 0.205
08:04 1024 30.24 853 25.19 4.9 40.9 83 2.2 36 5.19 0.204
08:05 1024 30.24 853 25.19 4.9 40.8 83 2.2 36 5.207 0.205
08:06 1024 30.24 853 25.19 4.9 40.9 83 2.4 36.3 5.257 0.207
08:07 1024 30.24 853 25.19 5 41 83 2.4 36.3 5.331 0.21
08:08 1024 30.24 853 25.19 5 41.1 83 2.4 36.4 5.359 0.211
08:09 1024 30.24 853 25.19 5.1 41.2 83 2.5 36.6 5.45 0.215
08:10 1024 30.24 853 25.19 5.2 41.4 83 2.5 36.6 5.495 0.216
08:11 1024 30.24 853 25.19 5.3 41.5 82 2.5 36.5 5.62 0.221
08:12 1024 30.24 853 25.19 5.4 41.7 81 2.5 36.5 5.688 0.224
08:13 1024 30.24 853 25.19 5.6 42 79 2.3 36.1 5.846 0.23
08:14 1024 30.24 853 25.19 5.9 42.6 78 2.4 36.3 6.067 0.239
08:15 1024 30.24 853 25.19 6.1 43 78 2.6 36.7 6.276 0.247
08:16 1024 30.24 853 25.19 6.1 43.1 80 2.9 37.2 6.367 0.251
08:17 1024 30.24 853 25.19 6.2 43.1 79 2.8 37 6.497 0.256
08:18 1024 30.24 853 25.19 6.2 43.2 79 2.8 37.1 6.553 0.258
08:19 1024 30.24 853 25.19 6.2 43.2 80 3 37.4 6.587 0.259
08:20 1024 30.24 853 25.19 6.3 43.3 79 2.9 37.3 6.678 0.263
08:21 1024 30.24 853 25.19 6.4 43.4 80 3.1 37.6 6.701 0.264
08:22 1024 30.24 853 25.19 6.4 43.6 80 3.2 37.8 6.797 0.268
08:23 1024 30.24 853 25.19 6.6 43.9 78 3.1 37.6 6.95 0.274
08:24 1024 30.24 853 25.19 6.7 44.1 78 3.2 37.7 7.1 0.28
08:25 1024 30.24 853 25.19 6.9 44.3 78 3.3 37.9 7.2 0.283
08:26 1024 30.24 853 25.19 6.9 44.5 78 3.4 38.2 7.32 0.288
08:27 1024 30.24 853 25.19 7 44.6 78 3.5 38.2 7.41 0.292
08:28 1024 30.24 853 25.19 7.1 44.7 78 3.5 38.3 7.52 0.296
08:29 1024 30.24 853 25.19 7.2 44.9 76 3.3 37.9 7.58 0.298
08:30 1024 30.24 853 25.19 7.3 45.1 77 3.4 38.2 7.7 0.303
08:31 1024 30.24 853 25.19 7.4 45.3 76 3.4 38.2 7.86 0.309
08:32 1024 30.24 853 25.19 7.5 45.4 75 3.3 37.9 7.93 0.312
08:33 1024 30.24 853 25.19 7.5 45.5 76 3.6 38.5 8.02 0.316
08:34 1024 30.24 853 25.19 7.6 45.7 76 3.7 38.7 8.1 0.319
08:35 1024 30.24 853 25.19 7.7 45.9 76 3.8 38.8 8.21 0.323
08:36 1024 30.24 853 25.19 7.8 46.1 75 3.7 38.6 8.26 0.325
08:37 1024 30.24 853 25.19 7.9 46.3 74 3.6 38.5 8.36 0.329
08:38 1024 30.24 853 25.19 8 46.4 75 4 39.1 8.47 0.333
08:39 1024 30.24 853 25.19 8.2 46.7 75 4 39.2 8.61 0.339
08:40 1024 30.24 853 25.19 8.3 46.9 74 4 39.2 8.79 0.346
08:41 1024 30.24 853 25.19 8.4 47.2 75 4.3 39.8 8.9 0.35
08:42 1024 30.24 853 25.19 8.6 47.5 74 4.3 39.7 9 0.354
08:43 1024 30.24 853 25.19 8.8 47.8 73 4.1 39.4 9.15 0.36
08:44 1024 30.24 853 25.19 8.9 47.9 72 4 39.3 9.26 0.365
08:45 1024 30.24 853 25.19 9 48.3 71 4.2 39.5 9.41 0.37
08:46 1024 30.24 853 25.19 9.1 48.4 72 4.4 39.8 9.53 0.375
08:47 1024 30.24 853 25.19 9.2 48.6 73 4.7 40.5 9.68 0.381
08:48 1024 30.24 853 25.19 9.3 48.7 72 4.5 40 9.77 0.385
08:49 1024 30.24 853 25.19 9.3 48.8 72 4.6 40.2 9.86 0.388
08:50 1024 30.24 853 25.19 9.4 49 70 4.2 39.5 9.93 0.391
08:51 1024 30.24 853 25.19 9.5 49 70 4.4 39.9 9.98 0.393
08:52 1024 30.24 853 25.19 9.5 49 74 5 41 10.06 0.396
08:53 1024 30.24 853 25.19 9.5 49.2 72 4.7 40.5 10.1 0.398
08:54 1024 30.24 853 25.19 9.6 49.3 69 4.2 39.6 10.12 0.398
08:55 1024 30.24 853 25.19 9.7 49.4 70 4.5 40 10.15 0.4
08:56 1024 30.24 853 25.19 9.7 49.5 70 4.6 40.2 10.23 0.403
08:57 1024 30.24 853 25.19 9.8 49.6 70 4.5 40.1 10.33 0.407
08:58 1024 30.24 853 25.19 9.9 49.8 67 4.2 39.5 10.38 0.409
08:59 1024 30.24 853 25.19 9.9 49.9 68 4.4 40 10.44 0.411
09:00 1024 30.24 853 25.19 10 50 66 3.9 39 10.45 0.411
09:01 1024 30.24 853 25.19 10 50.1 66 4.1 39.4 10.54 0.415
09:02 1024 30.24 853 25.19 10.1 50.2 66 4.1 39.4 10.6 0.417
09:03 1024 30.24 853 25.19 10.2 50.3 67 4.4 39.9 10.63 0.419
09:04 1024 30.24 853 25.19 10.3 50.5 66 4.2 39.6 10.68 0.42
09:05 1024 30.24 853 25.19 10.3 50.5 65 4 39.3 10.67 0.42
09:06 1024 30.24 853 25.19 10.3 50.6 64 3.8 38.9 10.71 0.422
09:07 1024 30.24 853 25.19 10.4 50.6 65 4.1 39.5 10.71 0.422
09:08 1024 30.24 853 25.19 10.4 50.7 65 4.2 39.5 10.75 0.423
09:09 1024 30.24 853 25.19 10.4 50.7 69 4.9 40.9 10.74 0.423
09:10 1024 30.24 853 25.19 10.5 50.9 67 4.6 40.3 10.83 0.426
09:11 1024 30.24 853 25.19 10.6 51 66 4.4 40 10.87 0.428
09:12 1024 30.24 853 25.19 10.7 51.2 68 5.1 41.1 10.96 0.431
09:13 1024 30.24 853 25.19 10.8 51.4 64 4.4 39.9 11.11 0.437
09:14 1024 30.24 853 25.19 10.9 51.6 64 4.5 40.1 11.23 0.442
09:15 1024 30.24 853 25.19 11 51.7 64 4.4 39.9 11.28 0.444
09:16 1024 30.24 853 25.19 11.1 52 64 4.6 40.3 11.43 0.45
09:17 1024 30.24 853 25.19 11.3 52.3 65 4.9 40.8 11.51 0.453
09:18 1024 30.24 853 25.19 11.4 52.4 66 5.3 41.6 11.66 0.459
09:19 1024 30.24 853 25.19 11.5 52.8 61 4.4 39.8 11.86 0.467
09:20 1024 30.24 853 25.19 11.7 53 63 5 41 12.05 0.474
09:21 1024 30.24 853 25.19 11.9 53.3 62 4.9 40.8 12.26 0.483
09:22 1024 30.24 853 25.19 12 53.6 58 4 39.2 12.39 0.488
09:23 1024 30.24 853 25.19 12 53.7 58 4.2 39.5 12.47 0.491
09:24 1024 30.24 853 25.19 12.1 53.8 59 4.3 39.7 12.57 0.495
09:25 1024 30.24 853 25.19 12.2 54 61 5 41.1 12.69 0.5
09:26 1024 30.24 853 25.19 12.4 54.2 62 5.3 41.5 12.85 0.506
09:27 1024 30.24 853 25.19 12.5 54.4 62 5.4 41.7 12.96 0.51
09:28 1024 30.24 853 25.19 12.6 54.6 57 4.4 39.9 13 0.512
09:29 1024 30.24 853 25.19 12.7 54.8 61 5.4 41.7 13.06 0.514
09:30 1024 30.24 853 25.19 12.8 55 57 4.5 40.1 13.19 0.519
09:31 1024 30.24 853 25.19 12.9 55.2 58 4.9 40.9 13.28 0.523
09:32 1024 30.24 853 25.19 12.9 55.3 57 4.7 40.5 13.42 0.528
09:33 1024 30.24 853 25.19 13 55.4 56 4.6 40.3 13.49 0.531
09:34 1024 30.24 853 25.19 13.1 55.5 60 5.6 42.1 13.57 0.534
09:35 1024 30.24 853 25.19 13.2 55.7 57 4.9 40.8 13.65 0.537
09:36 1024 30.24 853 25.19 13.2 55.8 58 5.2 41.3 13.77 0.542
09:37 1024 30.24 853 25.19 13.4 56 56 4.8 40.6 13.86 0.546
09:38 1024 30.24 853 25.19 13.4 56.2 56 5 40.9 13.9 0.547
09:39 1024 30.24 853 25.19 13.5 56.3 58 5.5 41.9 14.01 0.552
09:40 1024 30.24 853 25.19 13.7 56.6 51 3.9 39 14.1 0.555
09:41 1024 30.24 853 25.19 13.8 56.9 48 3.2 37.8 14.23 0.56
09:42 1024 30.24 853 25.19 13.8 56.9 56 5.3 41.5 14.25 0.561
09:43 1024 30.24 853 25.19 13.9 57 55 5.2 41.4 14.31 0.563
09:44 1024 30.24 853 25.19 14 57.2 53 4.7 40.4 14.33 0.564
09:45 1024 30.24 853 25.19 14.1 57.3 55 5.3 41.5 14.34 0.565
09:46 1024 30.24 853 25.19 14.2 57.5 54 5.2 41.4 14.39 0.567
09:47 1024 30.24 853 25.19 14.2 57.6 50 4.2 39.5 14.4 0.567
09:48 1024 30.24 853 25.19 14.1 57.4 49 3.6 38.4 14.27 0.562
09:49 1024 30.24 853 25.19 14.1 57.4 49 3.7 38.6 14.32 0.564
09:50 1024 30.24 853 25.19 14.1 57.5 51 4.2 39.6 14.17 0.558
09:51 1024 30.24 853 25.19 14.1 57.3 48 3.4 38.2 14.05 0.553
09:52 1024 30.24 853 25.19 14 57.2 53 4.5 40.1 13.98 0.55
09:53 1024 30.24 853 25.19 14 57.2 51 4.2 39.5 13.98 0.55
09:54 1024 30.24 853 25.19 14 57.2 52 4.3 39.7 13.97 0.55
09:55 1024 30.24 853 25.19 14 57.3 54 4.9 40.8 14.08 0.554
09:56 1024 30.24 853 25.19 14.1 57.3 47 3.1 37.6 14.19 0.559
09:57 1024 30.24 853 25.19 14.1 57.5 50 3.9 39 14.24 0.561
09:58 1024 30.24 853 25.19 14.2 57.5 50 3.9 39 14.25 0.561
09:59 1024 30.24 853 25.19 14.3 57.7 51 4.4 40 14.32 0.564
10:00 1024 30.24 853 25.19 14.4 57.8 49 4 39.2 14.4 0.567
10:01 1024 30.24 853 25.19 14.4 57.9 51 4.5 40 14.36 0.565
10:02 1024 30.24 853 25.19 14.4 57.8 47 3.2 37.7 14.4 0.567
10:03 1024 30.24 853 25.19 14.4 57.9 49 3.8 38.8 14.41 0.567
10:04 1024 30.24 853 25.19 14.4 57.9 52 4.8 40.7 14.48 0.57
10:05 1024 30.24 853 25.19 14.5 58.1 49 3.9 39 14.63 0.576
10:06 1024 30.24 853 25.19 14.6 58.2 46 3.2 37.8 14.66 0.577
10:07 1024 30.24 853 25.19 14.7 58.4 46 3.1 37.6 14.73 0.58
10:08 1024 30.24 853 25.19 14.7 58.4 51 4.7 40.4 14.75 0.581
10:09 1024 30.24 853 25.19 14.8 58.7 51 4.9 40.8 14.79 0.582
10:10 1024 30.24 853 25.19 14.9 58.9 51 4.9 40.8 14.88 0.586
10:11 1024 30.24 853 25.19 15 59 47 3.7 38.7 14.91 0.587
10:12 1024 30.24 853 25.19 15 59.1 51 4.9 40.9 14.9 0.587
10:13 1024 30.24 853 25.19 15.1 59.1 47 3.9 39 14.94 0.588
10:14 1024 30.24 853 25.19 15.1 59.1 47 4 39.2 14.96 0.589
10:15 1024 30.24 853 25.19 15.1 59.2 48 4.2 39.5 14.97 0.589
10:16 1024 30.24 853 25.19 15.2 59.3 49 4.6 40.3 15.08 0.594
10:17 1024 30.24 853 25.19 15.3 59.6 43 3 37.3 15.21 0.599
10:18 1024 30.24 853 25.19 15.4 59.7 45 3.6 38.5 15.19 0.598
10:19 1024 30.24 853 25.19 15.4 59.7 49 4.9 40.8 15.16 0.597
10:20 1024 30.24 853 25.19 15.5 59.8 48 4.6 40.3 15.35 0.604
10:21 1024 30.24 853 25.19 15.5 59.9 43 3.2 37.8 15.48 0.609
10:22 1024 30.24 853 25.19 15.5 59.8 43 3.1 37.6 15.53 0.611
10:23 1024 30.24 853 25.19 15.4 59.8 49 4.8 40.6 15.56 0.613
10:24 1024 30.24 853 25.19 15.5 60 44 3.3 38 15.64 0.616
10:25 1024 30.24 853 25.19 15.6 60.1 44 3.4 38.1 15.69 0.618
10:26 1024 30.24 853 25.19 15.7 60.3 43 3.2 37.8 15.81 0.622
10:27 1024 30.24 853 25.19 15.8 60.5 43 3.5 38.3 15.95 0.628
10:28 1024 30.24 853 25.19 15.7 60.2 42 2.9 37.3 15.85 0.624
10:29 1024 30.24 853 25.19 15.5 60 44 3.4 38.2 15.82 0.623
10:30 1024 30.24 853 25.19 15.5 59.9 44 3.3 37.9 15.72 0.619
10:31 1024 30.24 853 25.19 15.5 59.8 42 2.8 37 15.74 0.62
10:32 1024 30.24 853 25.19 15.6 60.1 43 3.2 37.8 15.86 0.624
10:33 1024 30.24 853 25.19 15.7 60.2 45 3.9 39 15.95 0.628
10:34 1024 30.24 853 25.19 15.7 60.2 45 3.8 38.8 15.97 0.629
10:35 1024 30.24 853 25.19 15.7 60.2 42 3 37.3 15.94 0.628
10:36 1024 30.24 853 25.19 15.6 60.1 42 2.9 37.2 15.92 0.627
10:37 1024 30.24 853 25.19 15.6 60.2 44 3.5 38.4 15.94 0.628
10:38 1024 30.24 853 25.19 15.7 60.2 48 4.7 40.4 15.95 0.628
10:39 1024 30.24 853 25.19 15.7 60.3 42 3.1 37.6 16.02 0.631
10:40 1024 30.24 853 25.19 15.7 60.2 41 2.6 36.7 15.96 0.628
10:41 1024 30.24 853 25.19 15.7 60.3 44 3.7 38.6 15.97 0.629
10:42 1024 30.24 853 25.19 16 60.7 47 4.7 40.5 16.15 0.636
10:43 1024 30.24 853 25.19 16.1 61.1 45 4.4 39.9 16.38 0.645
10:44 1024 30.24 853 25.19 16.1 60.9 42 3.2 37.7 16.36 0.644
10:45 1024 30.24 853 25.19 15.9 60.7 42 3 37.5 16.25 0.64
10:46 1024 30.24 853 25.19 15.8 60.4 43 3.3 37.9 16.07 0.633
10:47 1024 30.24 853 25.19 15.7 60.3 45 3.9 39 16 0.63
10:48 1024 30.24 853 25.19 15.8 60.4 45 3.8 38.9 16.04 0.631
10:49 1024 30.24 853 25.19 16 60.7 47 4.7 40.5 16.16 0.636
10:50 1024 30.24 853 25.19 16.2 61.1 47 4.8 40.7 16.27 0.641
10:51 1024 30.24 853 25.19 16.3 61.3 42 3.4 38.2 16.37 0.644
10:52 1024 30.24 853 25.19 16.5 61.7 42 3.7 38.6 16.56 0.652
10:53 1024 30.24 853 25.19 16.7 62.1 47 5.5 41.9 16.76 0.66
10:54 1024 30.24 853 25.19 16.6 61.9 44 4.6 40.2 16.82 0.662
10:55 1024 30.24 853 25.19 16.4 61.5 39 2.6 36.6 16.67 0.656
10:56 1024 30.24 853 25.19 16.3 61.3 40 2.9 37.3 16.58 0.653
10:57 1024 30.24 853 25.19 16.2 61.2 42 3.4 38.1 16.52 0.65
10:58 1024 30.24 853 25.19 16.2 61.1 42 3.3 37.9 16.5 0.65
10:59 1024 30.24 853 25.19 16.2 61.1 44 4.2 39.5 16.54 0.651
11:00 1024 30.24 853 25.19 16.3 61.3 42 3.4 38.1 16.64 0.655
11:01 1024 30.24 853 25.19 16.5 61.7 45 4.7 40.4 16.82 0.662
11:02 1024 30.24 853 25.19 16.6 62 42 3.9 39.1 17.04 0.671
11:03 1024 30.24 853 25.19 16.6 61.8 45 4.9 40.7 17.06 0.672
11:04 1024 30.24 853 25.19 16.4 61.6 46 4.9 40.9 16.87 0.664
11:05 1024 30.24 853 25.19 16.3 61.3 48 5.4 41.8 16.75 0.659
11:06 1024 30.24 853 25.19 16.3 61.4 45 4.3 39.8 16.77 0.66
11:07 1024 30.24 853 25.19 16.3 61.4 45 4.5 40.2 16.8 0.661
11:08 1024 30.24 853 25.19 16.4 61.6 45 4.6 40.3 16.83 0.663
11:09 1024 30.24 853 25.19 16.6 61.9 50 6.3 43.3 16.91 0.666
11:10 1024 30.24 853 25.19 16.8 62.2 41 3.7 38.7 17.12 0.674
11:11 1024 30.24 853 25.19 16.7 62 45 4.9 40.8 17.07 0.672
11:12 1024 30.24 853 25.19 16.7 62 46 5.2 41.4 17.15 0.675
11:13 1024 30.24 853 25.19 16.7 62 42 3.9 39 17.02 0.67
11:14 1024 30.24 853 25.19 16.5 61.8 41 3.2 37.8 16.86 0.664
11:15 1024 30.24 853 25.19 16.5 61.7 42 3.6 38.5 16.77 0.66
11:16 1024 30.24 853 25.19 16.6 61.9 42 3.8 38.9 16.81 0.662
11:17 1024 30.24 853 25.19 16.8 62.2 40 3.3 38 16.91 0.666
11:18 1024 30.24 853 25.19 16.9 62.4 44 4.7 40.4 17.01 0.67
11:19 1024 30.24 853 25.19 17.1 62.7 49 6.4 43.5 17.17 0.676
11:20 1024 30.24 853 25.19 17.3 63.1 42 4.5 40 17.41 0.685
11:21 1024 30.24 853 25.19 17.5 63.5 41 4.2 39.6 17.71 0.697
11:22 1024 30.24 853 25.19 17.5 63.4 43 4.8 40.6 17.76 0.699
11:23 1024 30.24 853 25.19 17.3 63.2 41 4 39.2 17.66 0.695
11:24 1024 30.24 853 25.19 17.2 63 43 4.5 40.1 17.57 0.692
11:25 1024 30.24 853 25.19 17.3 63.1 40 3.6 38.6 17.58 0.692
11:26 1024 30.24 853 25.19 17.1 62.7 41 3.8 38.9 17.5 0.689
11:27 1024 30.24 853 25.19 17 62.6 41 3.9 39.1 17.44 0.687
11:28 1023 30.21 853 25.19 17.1 62.8 46 5.6 42 17.57 0.692
11:29 1023 30.21 853 25.19 17.2 62.9 41 4 39.1 17.65 0.695
11:30 1023 30.21 853 25.19 17.2 63 48 6.3 43.4 17.71 0.697
11:31 1023 30.21 853 25.19 17.3 63.2 43 4.6 40.2 17.76 0.699
11:32 1023 30.21 853 25.19 17.2 63 45 5.2 41.4 17.7 0.697
11:33 1023 30.21 853 25.19 17 62.6 42 4.1 39.4 17.54 0.691
11:34 1023 30.21 853 25.19 16.9 62.4 46 5.4 41.7 17.42 0.686
11:35 1023 30.21 853 25.19 16.9 62.4 42 4 39.2 17.38 0.684
11:36 1023 30.21 853 25.19 16.9 62.5 44 4.9 40.7 17.41 0.685
11:37 1023 30.21 853 25.19 17 62.6 44 4.8 40.7 17.48 0.688
11:38 1023 30.21 853 25.19 17 62.7 41 3.7 38.7 17.52 0.69
11:39 1023 30.21 853 25.19 17 62.5 46 5.3 41.5 17.51 0.689
11:40 1023 30.21 853 25.19 17.1 62.9 42 4.4 39.8 17.67 0.696
11:41 1023 30.21 853 25.19 17.2 63 47 5.8 42.4 17.68 0.696
11:42 1023 30.21 853 25.19 17.3 63.2 44 5.1 41.2 17.75 0.699
11:43 1023 30.21 853 25.19 17.4 63.4 43 4.9 40.8 17.66 0.695
11:44 1023 30.21 853 25.19 17.5 63.5 45 5.5 41.9 17.67 0.696
11:45 1023 30.21 853 25.19 17.6 63.6 42 4.5 40.1 17.68 0.696
11:46 1023 30.21 853 25.19 17.6 63.6 41 4.3 39.7 17.63 0.694
11:47 1023 30.21 852 25.16 17.6 63.6 44 5.3 41.5 17.62 0.694
11:48 1023 30.21 853 25.19 17.6 63.6 42 4.6 40.2 17.74 0.698
11:49 1023 30.21 852 25.16 17.5 63.5 40 4 39.1 17.71 0.697
11:50 1023 30.21 852 25.16 17.5 63.4 42 4.6 40.4 17.66 0.695
11:51 1023 30.21 852 25.16 17.5 63.4 41 4 39.3 17.68 0.696
11:52 1023 30.21 852 25.16 17.5 63.4 42 4.6 40.2 17.53 0.69
11:53 1023 30.21 852 25.16 17.5 63.4 44 5.2 41.3 17.55 0.691
11:54 1023 30.21 852 25.16 17.6 63.7 43 5.1 41.2 17.83 0.702
11:55 1023 30.21 852 25.16 17.9 64.2 46 6.3 43.3 18.16 0.715
11:56 1023 30.21 852 25.16 18.1 64.6 42 5 40.9 18.45 0.726
11:57 1023 30.21 853 25.19 18 64.4 43 5.3 41.5 18.38 0.724
11:58 1023 30.21 853 25.19 17.8 64.1 41 4.7 40.4 18.25 0.719
11:59 1023 30.21 852 25.16 17.7 63.8 45 5.6 42 18.05 0.711
12:00 1023 30.21 852 25.16 17.7 63.8 39 3.5 38.3 17.99 0.708
12:01 1023 30.21 852 25.16 17.7 63.8 40 4 39.1 17.85 0.703
12:02 1023 30.21 852 25.16 17.7 63.8 46 6.2 43.1 17.78 0.7
12:03 1023 30.21 852 25.16 17.8 64.1 40 4.1 39.4 17.94 0.706
12:04 1023 30.21 852 25.16 17.9 64.3 44 5.6 42.1 18.07 0.711
12:05 1023 30.21 852 25.16 18 64.4 40 4.4 39.9 18.12 0.713
12:06 1023 30.21 852 25.16 18 64.3 41 4.5 40.1 18.09 0.712
12:07 1023 30.21 852 25.16 17.9 64.2 46 6.2 43.2 18.08 0.712
12:08 1023 30.21 852 25.16 17.9 64.2 40 4.2 39.6 18.1 0.713
12:09 1023 30.21 852 25.16 18 64.4 42 4.9 40.8 18.17 0.715
12:10 1023 30.21 852 25.16 18 64.3 43 5.5 41.8 18.14 0.714
12:11 1023 30.21 852 25.16 18 64.3 40 4.4 39.9 18.11 0.713
12:12 1023 30.21 852 25.16 18 64.3 40 4.3 39.7 18.17 0.715
12:13 1023 30.21 852 25.16 17.9 64.3 39 3.8 38.8 18.18 0.716
12:14 1023 30.21 852 25.16 17.9 64.3 42 4.9 40.8 18.22 0.717
12:15 1023 30.21 852 25.16 18 64.4 40 4.5 40.1 18.33 0.722
12:16 1023 30.21 852 25.16 18.1 64.7 47 6.7 44 18.38 0.724
12:17 1023 30.21 852 25.16 18.3 64.9 43 5.8 42.4 18.5 0.728
12:18 1023 30.21 852 25.16 18.4 65.1 40 4.6 40.4 18.52 0.729
12:19 1023 30.21 852 25.16 18.4 65.2 44 6.1 43 18.5 0.728
12:20 1023 30.21 852 25.16 18.4 65.1 39 4.2 39.6 18.41 0.725
12:21 1023 30.21 852 25.16 18.4 65.1 40 4.5 40.1 18.47 0.727
12:22 1023 30.21 852 25.16 18.4 65 37 3.7 38.7 18.5 0.728
12:23 1023 30.21 852 25.16 18.4 65.1 38 4 39.1 18.42 0.725
12:24 1023 30.21 852 25.16 18.5 65.2 40 4.7 40.5 18.47 0.727
12:25 1023 30.21 852 25.16 18.5 65.2 40 4.9 40.8 18.66 0.735
12:26 1023 30.21 852 25.16 18.5 65.3 41 5.1 41.1 18.77 0.739
12:27 1023 30.21 852 25.16 18.6 65.5 46 6.9 44.5 18.93 0.745
12:28 1023 30.21 852 25.16 18.7 65.7 44 6.3 43.3 19.02 0.749
12:29 1023 30.21 852 25.16 18.8 65.8 43 6.1 43 19.1 0.752
12:30 1023 30.21 852 25.16 18.6 65.5 49 7.8 46 19.09 0.752
12:31 1023 30.21 852 25.16 18.6 65.5 42 5.5 41.9 19.07 0.751
12:32 1023 30.21 852 25.16 18.6 65.4 39 4.4 39.9 19 0.748
12:33 1023 30.21 852 25.16 18.5 65.3 48 7.4 45.4 18.93 0.745
12:34 1023 30.21 852 25.16 18.5 65.4 44 6.2 43.2 18.96 0.746
12:35 1023 30.21 852 25.16 18.6 65.4 43 5.9 42.6 18.97 0.747
12:36 1023 30.21 852 25.16 18.5 65.3 43 5.8 42.5 18.92 0.745
12:37 1023 30.21 852 25.16 18.5 65.2 41 5.3 41.5 18.88 0.743
12:38 1023 30.21 852 25.16 18.4 65 39 4.3 39.8 18.8 0.74
12:39 1023 30.21 852 25.16 18.3 65 44 5.9 42.7 18.83 0.741
12:40 1023 30.21 852 25.16 18.4 65.2 39 4.5 40 18.92 0.745
12:41 1023 30.21 852 25.16 18.5 65.4 39 4.5 40.1 19.06 0.75
12:42 1023 30.21 852 25.16 18.6 65.6 41 5.2 41.3 19.03 0.749
12:43 1023 30.21 852 25.16 18.7 65.6 43 6.1 42.9 18.91 0.744
12:44 1023 30.21 852 25.16 18.6 65.5 42 5.6 42 18.78 0.739
12:45 1023 30.21 852 25.16 18.6 65.5 41 5.1 41.2 18.73 0.737
12:46 1023 30.21 852 25.16 18.6 65.4 38 4.1 39.3 18.67 0.735
12:47 1023 30.21 852 25.16 18.5 65.4 47 7.1 44.7 18.69 0.736
12:48 1023 30.21 852 25.16 18.8 65.8 44 6.4 43.5 18.97 0.747
12:49 1023 30.21 852 25.16 18.9 66 43 6.2 43.2 19.05 0.75
12:50 1023 30.21 852 25.16 18.9 66.1 42 6 42.8 19.07 0.751
12:51 1023 30.21 852 25.16 18.9 66.1 44 6.6 43.8 19.08 0.751
12:52 1023 30.21 852 25.16 18.9 66 45 6.9 44.5 19.09 0.752
12:53 1023 30.21 852 25.16 18.9 66 40 5.2 41.3 19.13 0.753
12:54 1023 30.21 852 25.16 18.8 65.8 42 5.8 42.5 19.09 0.752
12:55 1023 30.21 852 25.16 18.8 65.8 42 5.8 42.5 19.11 0.752
12:56 1023 30.21 852 25.16 18.8 65.9 39 4.9 40.7 19.23 0.757
12:57 1023 30.21 852 25.16 19 66.1 39 4.9 40.8 19.36 0.762
12:58 1023 30.21 852 25.16 19.2 66.5 38 4.8 40.6 19.57 0.77
12:59 1023 30.21 852 25.16 19.4 66.9 38 4.9 40.8 19.75 0.778
13:00 1023 30.21 852 25.16 19.5 67.2 46 7.6 45.7 19.92 0.784
13:01 1023 30.21 852 25.16 19.7 67.4 40 5.9 42.6 19.98 0.787
13:02 1023 30.21 852 25.16 19.7 67.5 39 5.7 42.2 19.93 0.785
13:03 1023 30.21 852 25.16 19.7 67.4 39 5.5 41.8 19.84 0.781
13:04 1023 30.21 852 25.16 19.7 67.4 39 5.5 41.9 19.76 0.778
13:05 1023 30.21 852 25.16 19.4 67 40 5.8 42.4 19.54 0.769
13:06 1023 30.21 852 25.16 19.2 66.6 44 6.7 44.1 19.41 0.764
13:07 1023 30.21 852 25.16 19.2 66.6 40 5.4 41.7 19.5 0.768
13:08 1023 30.21 852 25.16 19.3 66.8 41 5.8 42.5 19.63 0.773
13:09 1023 30.21 852 25.16 19.4 66.9 42 6.4 43.5 19.75 0.778
13:10 1023 30.21 852 25.16 19.5 67.1 40 5.7 42.3 19.87 0.782
13:11 1023 30.21 852 25.16 19.4 67 46 7.8 46 19.76 0.778
13:12 1023 30.21 852 25.16 19.4 66.9 46 7.6 45.7 19.71 0.776
13:13 1023 30.21 852 25.16 19.6 67.2 45 7.4 45.4 19.65 0.774
13:14 1023 30.21 852 25.16 19.6 67.2 42 6.6 43.9 19.71 0.776
13:15 1023 30.21 852 25.16 19.7 67.5 42 6.6 43.9 19.88 0.783
13:16 1023 30.21 852 25.16 19.8 67.6 42 6.8 44.2 19.99 0.787
13:17 1023 30.21 852 25.16 19.7 67.5 41 6.4 43.5 19.99 0.787
13:18 1023 30.21 852 25.16 19.7 67.5 43 7.1 44.7 20.04 0.789
13:19 1023 30.21 852 25.16 19.9 67.7 44 7.4 45.4 20.11 0.792
13:20 1023 30.21 852 25.16 20 68 40 6.3 43.3 20.24 0.797
13:21 1023 30.21 852 25.16 20 68 42 6.8 44.3 20.34 0.801
13:22 1023 30.21 852 25.16 20.2 68.3 44 7.7 45.9 20.53 0.808
13:23 1023 30.21 852 25.16 20.3 68.5 42 7.1 44.7 20.73 0.816
13:24 1023 30.21 852 25.16 20.2 68.4 42 7.1 44.7 20.74 0.817
13:25 1023 30.21 852 25.16 20.4 68.7 40 6.4 43.6 20.83 0.82
13:26 1023 30.21 852 25.16 20.5 68.9 39 6.3 43.3 20.78 0.818
13:27 1023 30.21 852 25.16 20.3 68.6 47 8.9 48 20.51 0.807
13:28 1023 30.21 852 25.16 20.2 68.3 42 7.1 44.7 20.32 0.8
13:29 1023 30.21 852 25.16 20 68 41 6.4 43.6 20.21 0.796
13:30 1023 30.21 852 25.16 19.9 67.9 45 7.7 45.9 20.14 0.793
13:31 1023 30.21 852 25.16 19.9 67.8 43 7 44.7 20.08 0.791
13:32 1023 30.21 852 25.16 19.9 67.7 42 6.6 44 20.01 0.788
13:33 1022 30.18 852 25.16 19.9 67.8 42 6.8 44.3 19.97 0.786
13:34 1022 30.18 852 25.16 19.9 67.9 46 8.2 46.8 19.94 0.785
13:35 1022 30.18 852 25.16 20 67.9 44 7.5 45.6 19.97 0.786
13:36 1022 30.18 852 25.16 19.9 67.9 41 6.3 43.3 19.95 0.785
13:37 1022 30.18 852 25.16 19.9 67.7 47 8.3 47 19.89 0.783
13:38 1022 30.18 852 25.16 19.9 67.8 47 8.5 47.4 20.06 0.79
13:39 1022 30.18 852 25.16 19.9 67.9 41 6.5 43.7 20.2 0.795
13:40 1022 30.18 852 25.16 19.9 67.7 44 7.5 45.5 20.25 0.797
13:41 1022 30.18 852 25.16 20 67.9 48 8.7 47.7 20.42 0.804
13:42 1022 30.18 852 25.16 20.1 68.2 42 6.9 44.3 20.44 0.805
13:43 1022 30.18 852 25.16 20.2 68.4 41 6.9 44.4 20.41 0.804
13:44 1022 30.18 852 25.16 20.1 68.2 41 6.6 44 20.24 0.797
13:45 1022 30.18 852 25.16 20 68 39 5.9 42.5 20.12 0.792
13:46 1022 30.18 852 25.16 19.9 67.7 48 8.8 47.8 19.96 0.786
13:47 1022 30.18 852 25.16 19.8 67.6 45 7.8 46 20.03 0.789
13:48 1022 30.18 852 25.16 19.7 67.5 40 5.8 42.5 20 0.787
13:49 1022 30.18 852 25.16 19.8 67.6 43 7 44.7 20.01 0.788
13:50 1022 30.18 852 25.16 19.9 67.9 42 6.9 44.5 20.23 0.796
13:51 1022 30.18 852 25.16 20 67.9 40 6.3 43.3 20.19 0.795
13:52 1022 30.18 852 25.16 19.9 67.8 47 8.3 46.9 20.11 0.792
13:53 1022 30.18 852 25.16 19.9 67.9 41 6.5 43.7 20.15 0.793
13:54 1022 30.18 852 25.16 20.1 68.2 41 6.5 43.6 20.31 0.8
13:55 1022 30.18 851 25.13 20.2 68.4 39 5.8 42.5 20.4 0.803
13:56 1022 30.18 851 25.13 20.3 68.6 39 5.9 42.6 20.44 0.805
13:57 1022 30.18 851 25.13 20.5 68.9 42 7.4 45.4 20.6 0.811
13:58 1022 30.18 851 25.13 20.6 69.1 40 6.6 43.8 20.69 0.815
13:59 1022 30.18 851 25.13 20.6 69 41 6.9 44.4 20.56 0.809
14:00 1022 30.18 851 25.13 20.5 68.9 41 6.9 44.4 20.49 0.807
14:01 1022 30.18 851 25.13 20.5 68.9 41 7 44.5 20.54 0.809
14:02 1022 30.18 851 25.13 20.7 69.2 40 6.6 43.9 20.73 0.816
14:03 1022 30.18 851 25.13 20.8 69.4 46 8.9 48 20.86 0.821
14:04 1022 30.18 851 25.13 20.7 69.2 40 6.6 43.9 20.87 0.822
14:05 1022 30.18 851 25.13 20.5 68.9 45 8.2 46.8 20.81 0.819
14:06 1022 30.18 851 25.13 20.5 68.9 41 7.1 44.8 20.81 0.819
14:07 1022 30.18 851 25.13 20.5 68.9 44 8 46.4 20.79 0.819
14:08 1022 30.18 851 25.13 20.4 68.8 43 7.7 45.9 20.74 0.817
14:09 1022 30.18 851 25.13 20.5 68.9 44 7.9 46.2 20.67 0.814
14:10 1022 30.18 851 25.13 20.5 68.9 41 6.9 44.5 20.58 0.81
14:11 1022 30.18 851 25.13 20.6 69 40 6.6 43.8 20.64 0.813
14:12 1022 30.18 851 25.13 20.5 68.9 42 7.4 45.4 20.73 0.816
14:13 1022 30.18 851 25.13 20.6 69.1 41 7.1 44.8 20.88 0.822
14:14 1022 30.18 851 25.13 20.8 69.4 46 8.8 47.8 21.11 0.831
14:15 1022 30.18 851 25.13 20.9 69.6 45 8.8 47.8 21.27 0.837
14:16 1022 30.18 851 25.13 20.8 69.5 46 9 48.2 21.31 0.839
14:17 1022 30.18 851 25.13 20.8 69.5 40 6.9 44.5 21.29 0.838
14:18 1022 30.18 851 25.13 20.8 69.4 39 6.6 43.8 21.19 0.834
14:19 1022 30.18 851 25.13 20.7 69.3 42 7.7 45.8 21.08 0.83
14:20 1022 30.18 851 25.13 20.7 69.3 46 8.8 47.8 21.08 0.83
14:21 1022 30.18 851 25.13 20.9 69.5 39 6.4 43.5 21.08 0.83
14:22 1022 30.18 851 25.13 20.9 69.5 47 9.2 48.5 20.98 0.826
14:23 1022 30.18 851 25.13 20.9 69.6 40 7.1 44.8 21.02 0.828
14:24 1022 30.18 851 25.13 21 69.7 40 7.1 44.8 20.95 0.825
14:25 1022 30.18 851 25.13 21 69.8 40 7 44.6 20.97 0.826
14:26 1022 30.18 851 25.13 21.1 69.9 40 7.2 45 21.08 0.83
14:27 1022 30.18 851 25.13 21 69.7 46 9.1 48.4 21.1 0.831
14:28 1022 30.18 851 25.13 21 69.8 38 6.2 43.1 21.18 0.834
14:29 1022 30.18 851 25.13 20.8 69.5 39 6.6 43.8 21.05 0.829
14:30 1022 30.18 851 25.13 20.7 69.2 43 7.9 46.2 20.99 0.826
14:31 1022 30.18 851 25.13 20.7 69.2 44 8.2 46.7 21.03 0.828
14:32 1022 30.18 851 25.13 20.7 69.3 40 6.9 44.4 21.02 0.828
14:33 1022 30.18 851 25.13 20.6 69.1 38 6.1 43 20.92 0.824
14:34 1022 30.18 851 25.13 20.6 69.1 48 9.4 48.9 20.97 0.826
14:35 1022 30.18 851 25.13 20.7 69.2 37 5.7 42.2 21.04 0.828
14:36 1022 30.18 851 25.13 20.6 69.2 38 5.9 42.6 20.94 0.824
14:37 1022 30.18 851 25.13 20.6 69 44 8.1 46.6 20.91 0.823
14:38 1022 30.18 851 25.13 20.6 69.1 42 7.3 45.1 21 0.827
14:39 1022 30.18 851 25.13 20.7 69.3 43 7.9 46.2 21.01 0.827
14:40 1022 30.18 851 25.13 20.8 69.4 45 8.7 47.7 20.97 0.826
14:41 1022 30.18 851 25.13 20.9 69.7 39 6.6 43.8 21.05 0.829
14:42 1022 30.18 851 25.13 21 69.8 39 6.7 44.1 21.11 0.831
14:43 1022 30.18 851 25.13 21.2 70.1 39 6.9 44.4 21.23 0.836
14:44 1022 30.18 851 25.13 21.1 70 44 8.5 47.2 21.26 0.837
14:45 1022 30.18 851 25.13 21 69.7 38 6.4 43.4 21.18 0.834
14:46 1022 30.18 851 25.13 20.9 69.7 42 7.8 46 21.22 0.835
14:47 1022 30.18 851 25.13 21 69.8 37 5.9 42.6 21.28 0.838
14:48 1022 30.18 851 25.13 21 69.8 43 8 46.4 21.3 0.839
14:49 1022 30.18 851 25.13 20.9 69.7 40 7.1 44.7 21.26 0.837
14:50 1022 30.18 851 25.13 20.9 69.6 39 6.6 43.9 21.2 0.835
14:51 1022 30.18 851 25.13 20.9 69.7 43 8.1 46.7 21.24 0.836
14:52 1022 30.18 851 25.13 20.9 69.7 39 6.8 44.2 21.24 0.836
14:53 1022 30.18 851 25.13 20.9 69.7 43 8 46.3 21.25 0.837
14:54 1022 30.18 851 25.13 21.1 69.9 42 7.7 45.9 21.34 0.84
14:55 1022 30.18 851 25.13 21.2 70.1 36 5.8 42.4 21.36 0.841
14:56 1022 30.18 851 25.13 21.2 70.1 39 7 44.5 21.29 0.838
14:57 1022 30.18 851 25.13 21.2 70.2 37 6 42.7 21.28 0.838
14:58 1022 30.18 851 25.13 21.2 70.2 39 7 44.6 21.33 0.84
14:59 1022 30.18 851 25.13 21.3 70.4 39 6.9 44.5 21.47 0.845
15:00 1022 30.18 851 25.13 21.4 70.5 45 9.3 48.7 21.46 0.845
15:01 1022 30.18 851 25.13 21.4 70.5 39 7 44.6 21.42 0.843
15:02 1022 30.18 851 25.13 21.4 70.5 41 7.9 46.1 21.43 0.844
15:03 1022 30.18 851 25.13 21.4 70.6 43 8.5 47.2 21.47 0.845
15:04 1022 30.18 851 25.13 21.4 70.5 37 6.4 43.5 21.45 0.844
15:05 1022 30.18 851 25.13 21.3 70.4 40 7.4 45.4 21.38 0.842
15:06 1022 30.18 851 25.13 21.4 70.4 39 6.9 44.4 21.48 0.846
15:07 1022 30.18 851 25.13 21.3 70.4 40 7.3 45.2 21.59 0.85
15:08 1022 30.18 851 25.13 21.2 70.2 38 6.4 43.5 21.5 0.846
15:09 1022 30.18 851 25.13 21.1 70 42 8 46.5 21.47 0.845
15:10 1022 30.18 851 25.13 21.2 70.1 45 8.8 47.8 21.55 0.848
15:11 1022 30.18 851 25.13 21.2 70.2 42 7.8 46.1 21.65 0.852
15:12 1022 30.18 851 25.13 21.4 70.4 40 7.5 45.5 21.74 0.856
15:13 1022 30.18 851 25.13 21.4 70.5 41 7.6 45.7 21.7 0.854
15:14 1022 30.18 851 25.13 21.3 70.3 42 8.1 46.7 21.56 0.849
15:15 1022 30.18 851 25.13 21.3 70.3 38 6.4 43.6 21.53 0.848
15:16 1022 30.18 851 25.13 21.2 70.1 39 6.9 44.5 21.46 0.845
15:17 1022 30.18 851 25.13 21.1 70.1 37 6 42.8 21.52 0.847
15:18 1022 30.18 851 25.13 21.2 70.1 37 6 42.9 21.62 0.851
15:19 1022 30.18 851 25.13 21.3 70.4 43 8.5 47.3 21.75 0.856
15:20 1022 30.18 851 25.13 21.6 70.8 41 7.9 46.2 21.88 0.861
15:21 1022 30.18 851 25.13 21.7 71.1 38 7 44.6 22.01 0.867
15:22 1022 30.18 851 25.13 21.8 71.2 41 8.1 46.6 22.12 0.871
15:23 1022 30.18 851 25.13 21.8 71.2 34 5.2 41.4 22.09 0.87
15:24 1022 30.18 851 25.13 21.7 71 37 6.4 43.4 22.01 0.867
15:25 1022 30.18 851 25.13 21.6 70.8 36 6.1 43 21.94 0.864
15:26 1022 30.18 851 25.13 21.5 70.7 38 6.8 44.3 21.8 0.858
15:27 1022 30.18 851 25.13 21.5 70.8 35 5.5 42 21.84 0.86
15:28 1022 30.18 851 25.13 21.6 70.8 37 6.4 43.5 21.81 0.859
15:29 1022 30.18 851 25.13 21.5 70.7 42 8.1 46.6 21.74 0.856
15:30 1022 30.18 851 25.13 21.5 70.8 39 7.2 45 21.79 0.858
15:31 1022 30.18 851 25.13 21.6 70.8 41 7.8 46 21.72 0.855
15:32 1022 30.18 851 25.13 21.5 70.7 38 6.6 43.9 21.7 0.854
15:33 1022 30.18 851 25.13 21.6 70.9 37 6.4 43.6 21.72 0.855
15:34 1022 30.18 851 25.13 21.7 71 35 5.5 42 21.7 0.854
15:35 1022 30.18 851 25.13 21.7 71.1 41 8.2 46.7 21.7 0.854
15:36 1022 30.18 851 25.13 21.8 71.3 36 6.3 43.3 21.91 0.863
15:37 1022 30.18 851 25.13 21.9 71.3 33 5 41.1 21.91 0.863
15:38 1022 30.18 851 25.13 21.8 71.3 35 5.7 42.3 21.85 0.86
15:39 1022 30.18 851 25.13 21.9 71.4 35 5.9 42.6 21.89 0.862
15:40 1022 30.18 851 25.13 21.9 71.5 34 5.6 42.1 21.99 0.866
15:41 1022 30.18 851 25.13 21.9 71.3 37 6.5 43.7 22 0.866
15:42 1022 30.18 851 25.13 21.8 71.2 33 5.2 41.4 21.98 0.865
15:43 1022 30.18 851 25.13 21.7 71 34 5.1 41.2 21.91 0.863
15:44 1022 30.18 851 25.13 21.6 71 37 6.7 44 21.88 0.861
15:45 1022 30.18 851 25.13 21.7 71 38 6.8 44.3 21.95 0.864
15:46 1022 30.18 851 25.13 21.9 71.4 37 6.7 44.1 22.1 0.87
15:47 1022 30.18 851 25.13 22.2 71.9 32 4.8 40.6 22.32 0.879
15:48 1022 30.18 851 25.13 22.3 72.1 33 5.6 42.1 22.49 0.885
15:49 1022 30.18 851 25.13 22.4 72.4 32 5 41 22.65 0.892
15:50 1022 30.18 851 25.13 22.5 72.4 34 6 42.8 22.79 0.897
15:51 1022 30.18 851 25.13 22.6 72.7 31 5 41 22.89 0.901
15:52 1022 30.18 851 25.13 22.7 72.9 33 5.8 42.5 22.92 0.902
15:53 1022 30.18 851 25.13 22.6 72.6 30 4.6 40.2 22.72 0.894
15:54 1022 30.18 851 25.13 22.3 72.1 34 6 42.9 22.54 0.887
15:55 1022 30.18 851 25.13 22.2 71.9 31 4.5 40 22.48 0.885
15:56 1022 30.18 851 25.13 22.1 71.7 34 5.8 42.4 22.43 0.883
15:57 1022 30.18 851 25.13 22 71.6 32 4.9 40.9 22.37 0.881
15:58 1022 30.18 851 25.13 21.9 71.4 34 5.7 42.3 22.32 0.879
15:59 1022 30.18 851 25.13 21.9 71.4 37 6.8 44.3 22.31 0.878
16:00 1022 30.18 851 25.13 21.9 71.4 35 5.8 42.5 22.32 0.879
16:01 1022 30.18 851 25.13 21.9 71.3 37 6.7 44.1 22.28 0.877
16:02 1022 30.18 851 25.13 21.9 71.5 33 5.1 41.1 22.4 0.882
16:03 1022 30.18 851 25.13 22 71.5 36 6.5 43.7 22.34 0.88
16:04 1022 30.18 851 25.13 21.9 71.5 35 6 42.7 22.37 0.881
16:05 1022 30.18 851 25.13 22 71.6 37 7 44.6 22.34 0.88
16:06 1022 30.18 851 25.13 22.2 71.9 38 7.3 45.2 22.44 0.883
16:07 1022 30.18 851 25.13 22.3 72.1 38 7.5 45.4 22.49 0.885
16:08 1022 30.18 851 25.13 22.2 72 36 6.6 44 22.51 0.886
16:09 1022 30.18 851 25.13 22.4 72.2 39 8 46.4 22.58 0.889
16:10 1022 30.18 851 25.13 22.5 72.5 35 6.6 43.8 22.73 0.895
16:11 1022 30.18 851 25.13 22.5 72.5 35 6.4 43.5 22.8 0.898
16:12 1022 30.18 851 25.13 22.4 72.3 32 5.3 41.6 22.79 0.897
16:13 1022 30.18 851 25.13 22.4 72.4 32 5 41.1 22.78 0.897
16:14 1022 30.18 851 25.13 22.5 72.6 35 6.6 43.8 22.91 0.902
16:15 1022 30.18 851 25.13 22.6 72.6 37 7.3 45.2 22.98 0.905
16:16 1022 30.18 851 25.13 22.5 72.6 31 4.8 40.6 22.96 0.904
16:17 1022 30.18 851 25.13 22.5 72.5 34 6.1 42.9 22.86 0.9
16:18 1022 30.18 851 25.13 22.5 72.4 36 6.7 44.1 22.81 0.898
16:19 1022 30.18 851 25.13 22.5 72.4 32 5 41 22.77 0.896
16:20 1022 30.18 851 25.13 22.5 72.4 35 6.4 43.5 22.78 0.897
16:21 1022 30.18 851 25.13 22.4 72.3 31 4.8 40.7 22.79 0.897
16:22 1022 30.18 851 25.13 22.3 72.2 37 7 44.7 22.77 0.896
16:23 1022 30.18 851 25.13 22.3 72.1 36 6.5 43.7 22.77 0.896
16:24 1022 30.18 851 25.13 22.3 72.1 39 7.8 46.1 22.71 0.894
16:25 1022 30.18 851 25.13 22.3 72.1 32 4.9 40.9 22.71 0.894
16:26 1022 30.18 851 25.13 22.3 72.1 37 7 44.7 22.65 0.892
16:27 1022 30.18 851 25.13 22.2 72 36 6.8 44.2 22.55 0.888
16:28 1022 30.18 851 25.13 22.2 71.9 35 6.2 43.1 22.49 0.885
16:29 1022 30.18 851 25.13 22.1 71.7 31 4.3 39.8 22.41 0.882
16:30 1022 30.18 851 25.13 22.1 71.8 34 5.7 42.3 22.41 0.882
16:31 1022 30.18 851 25.13 22.1 71.8 33 5.1 41.2 22.41 0.882
16:32 1022 30.18 851 25.13 22.2 71.9 31 4.6 40.2 22.51 0.886
16:33 1022 30.18 851 25.13 22.3 72.1 34 5.7 42.2 22.45 0.884
16:34 1022 30.18 851 25.13 22.5 72.4 31 4.8 40.6 22.58 0.889
16:35 1022 30.18 851 25.13 22.7 72.8 32 5.2 41.3 22.74 0.895
16:36 1022 30.18 851 25.13 22.7 72.9 33 5.6 42.2 22.93 0.903
16:37 1022 30.18 851 25.13 22.6 72.7 34 6.2 43.2 22.95 0.904
16:38 1022 30.18 851 25.13 22.5 72.5 32 5.4 41.8 22.97 0.904
16:39 1022 30.18 851 25.13 22.5 72.5 36 7 44.6 22.93 0.903
16:40 1022 30.18 851 25.13 22.4 72.4 33 5.5 41.8 22.85 0.9
16:41 1022 30.18 851 25.13 22.4 72.2 33 5.3 41.6 22.79 0.897
16:42 1022 30.18 851 25.13 22.3 72.2 32 5 41.1 22.69 0.893
16:43 1022 30.18 851 25.13 22.3 72.1 31 4.6 40.3 22.66 0.892
16:44 1022 30.18 851 25.13 22.4 72.3 32 5.1 41.2 22.72 0.894
16:45 1022 30.18 851 25.13 22.5 72.5 30 4.2 39.5 22.85 0.9
16:46 1022 30.18 851 25.13 22.6 72.7 35 6.4 43.5 22.98 0.905
16:47 1022 30.18 851 25.13 22.6 72.7 36 6.9 44.4 23.01 0.906
16:48 1022 30.18 851 25.13 22.5 72.4 30 4.4 39.9 22.9 0.902
16:49 1022 30.18 851 25.13 22.3 72.2 31 4.8 40.7 22.85 0.9
16:50 1022 30.18 851 25.13 22.3 72.1 37 7.3 45.1 22.79 0.897
16:51 1022 30.18 851 25.13 22.3 72.1 34 5.9 42.7 22.8 0.898
16:52 1022 30.18 851 25.13 22.4 72.3 37 7.4 45.3 22.87 0.9
16:53 1022 30.18 851 25.13 22.5 72.5 33 5.5 41.9 22.95 0.904
16:54 1022 30.18 851 25.13 22.5 72.5 31 4.6 40.2 22.99 0.905
16:55 1022 30.18 851 25.13 22.6 72.6 33 5.9 42.6 23 0.906
16:56 1022 30.18 851 25.13 22.6 72.7 36 7.1 44.8 23.09 0.909
16:57 1022 30.18 851 25.13 22.6 72.6 35 6.4 43.5 23.01 0.906
16:58 1022 30.18 851 25.13 22.5 72.4 38 7.7 45.9 22.96 0.904
16:59 1022 30.18 851 25.13 22.3 72.1 32 4.9 40.8 22.79 0.897
17:00 1022 30.18 851 25.13 22.2 71.9 33 5.3 41.5 22.64 0.891
17:01 1022 30.18 851 25.13 22.1 71.8 37 6.8 44.2 22.53 0.887
17:02 1022 30.18 851 25.13 22 71.6 36 6.5 43.7 22.44 0.883
17:03 1022 30.18 851 25.13 22 71.6 38 7.1 44.8 22.38 0.881
17:04 1022 30.18 851 25.13 22 71.6 39 7.7 45.8 22.39 0.881
17:05 1022 30.18 851 25.13 22.1 71.7 40 8 46.4 22.51 0.886
17:06 1022 30.18 851 25.13 22.2 71.9 37 7.1 44.8 22.61 0.89
17:07 1022 30.18 851 25.13 22.3 72.1 38 7.3 45.2 22.67 0.893
17:08 1022 30.18 851 25.13 22.3 72.1 36 6.8 44.2 22.68 0.893
17:09 1022 30.18 851 25.13 22.2 71.9 36 6.6 43.9 22.69 0.893
17:10 1022 30.18 851 25.13 22.1 71.8 37 6.8 44.2 22.62 0.891
17:11 1022 30.18 851 25.13 22.1 71.7 37 6.7 44.1 22.58 0.889
17:12 1022 30.18 851 25.13 22.1 71.7 35 6.2 43.1 22.49 0.885
17:13 1022 30.18 851 25.13 22 71.6 37 6.7 44.1 22.43 0.883
17:14 1022 30.18 851 25.13 22 71.6 35 6.2 43.2 22.44 0.883
17:15 1022 30.18 851 25.13 22 71.5 33 5.1 41.2 22.38 0.881
17:16 1022 30.18 851 25.13 22 71.6 39 7.6 45.7 22.36 0.88
17:17 1022 30.18 851 25.13 22 71.6 40 8.1 46.6 22.45 0.884
17:18 1022 30.18 851 25.13 22.1 71.7 37 6.8 44.3 22.5 0.886
17:19 1022 30.18 851 25.13 22.1 71.7 39 7.7 45.9 22.45 0.884
17:20 1022 30.18 851 25.13 22 71.6 39 7.5 45.6 22.42 0.883
17:21 1022 30.18 851 25.13 22 71.5 38 7.2 44.9 22.34 0.88
17:22 1022 30.18 851 25.13 21.9 71.4 35 6.1 43 22.3 0.878
17:23 1022 30.18 851 25.13 21.9 71.4 39 7.7 45.8 22.3 0.878
17:24 1022 30.18 851 25.13 21.9 71.4 39 7.6 45.6 22.29 0.878
17:25 1022 30.18 851 25.13 21.8 71.3 40 7.7 45.9 22.27 0.877
17:26 1022 30.18 851 25.13 21.8 71.3 37 6.5 43.7 22.19 0.874
17:27 1022 30.18 851 25.13 21.7 71.1 42 8.5 47.3 22.14 0.872
17:28 1022 30.18 851 25.13 21.7 71.1 40 7.7 45.9 22.07 0.869
17:29 1022 30.18 851 25.13 21.7 71 42 8.3 46.9 22.03 0.867
17:30 1022 30.18 851 25.13 21.7 71 43 8.7 47.7 22.07 0.869
17:31 1022 30.18 851 25.13 21.7 71 42 8.4 47.1 22.04 0.868
17:32 1022 30.18 851 25.13 21.6 70.9 39 7.2 45 21.96 0.865
17:33 1022 30.18 851 25.13 21.5 70.7 41 7.9 46.2 21.94 0.864
17:34 1022 30.18 851 25.13 21.5 70.7 38 6.6 43.9 21.9 0.862
17:35 1022 30.18 851 25.13 21.5 70.7 41 7.7 45.8 21.9 0.862
17:36 1022 30.18 851 25.13 21.5 70.8 38 7 44.5 21.93 0.863
17:37 1022 30.18 851 25.13 21.5 70.7 40 7.7 45.9 21.92 0.863
17:38 1022 30.18 851 25.13 21.5 70.7 42 8.2 46.7 21.92 0.863
17:39 1022 30.18 851 25.13 21.5 70.7 41 8 46.3 21.92 0.863
17:40 1022 30.18 851 25.13 21.5 70.7 42 8.4 47 21.91 0.863
17:41 1022 30.18 851 25.13 21.5 70.7 41 7.8 46 21.91 0.863
17:42 1022 30.18 851 25.13 21.5 70.7 43 8.7 47.7 21.9 0.862
17:43 1022 30.18 851 25.13 21.5 70.8 45 9.1 48.4 21.9 0.862
17:44 1022 30.18 851 25.13 21.5 70.6 43 8.7 47.7 21.88 0.861
17:45 1022 30.18 851 25.13 21.5 70.6 42 8.1 46.6 21.86 0.861
17:46 1022 30.18 851 25.13 21.4 70.5 43 8.4 47.1 21.83 0.859
17:47 1022 30.18 851 25.13 21.4 70.4 42 8.2 46.7 21.79 0.858
17:48 1022 30.18 851 25.13 21.4 70.5 44 8.7 47.6 21.78 0.857
17:49 1022 30.18 851 25.13 21.4 70.4 44 8.8 47.8 21.79 0.858
17:50 1022 30.18 851 25.13 21.4 70.4 46 9.4 49 21.75 0.856
17:51 1022 30.18 851 25.13 21.3 70.4 46 9.4 49 21.71 0.855
17:52 1022 30.18 851 25.13 21.3 70.3 48 10 50.1 21.72 0.855
17:53 1022 30.18 851 25.13 21.2 70.2 47 9.7 49.4 21.67 0.853
17:54 1022 30.18 851 25.13 21.2 70.1 47 9.7 49.5 21.6 0.85
17:55 1022 30.18 851 25.13 21.1 70 45 8.9 48 21.56 0.849
17:56 1022 30.18 851 25.13 21.1 69.9 45 8.7 47.7 21.48 0.846
17:57 1022 30.18 851 25.13 21.1 69.9 47 9.4 48.9 21.44 0.844
17:58 1022 30.18 851 25.13 21.1 69.9 43 8.1 46.6 21.46 0.845
17:59 1022 30.18 851 25.13 21.2 70.1 46 9.1 48.4 21.5 0.846
18:00 1022 30.18 851 25.13 21.2 70.1 48 9.9 49.9 21.57 0.849
18:01 1022 30.18 851 25.13 21.2 70.2 49 10.1 50.2 21.61 0.851
18:02 1022 30.18 851 25.13 21.2 70.2 48 9.9 49.8 21.6 0.85
18:03 1022 30.18 851 25.13 21.1 69.9 49 10.2 50.3 21.48 0.846
18:04 1022 30.18 851 25.13 20.9 69.7 48 9.8 49.6 21.34 0.84
18:05 1022 30.18 851 25.13 20.8 69.4 48 9.7 49.4 21.19 0.834
18:06 1022 30.18 851 25.13 20.7 69.2 50 9.9 49.9 21.08 0.83
18:07 1022 30.18 851 25.13 20.6 69 51 10.1 50.2 20.96 0.825
18:08 1022 30.18 851 25.13 20.5 68.8 51 10.1 50.2 20.86 0.821
18:09 1022 30.18 851 25.13 20.4 68.7 50 9.8 49.7 20.76 0.817
18:10 1022 30.18 851 25.13 20.3 68.6 51 9.9 49.8 20.66 0.813
18:11 1022 30.18 851 25.13 20.3 68.5 49 9.2 48.6 20.65 0.813
18:12 1022 30.18 851 25.13 20.2 68.3 51 10 50 20.6 0.811
18:13 1022 30.18 851 25.13 20.1 68.2 54 10.6 51.1 20.48 0.806
18:14 1022 30.18 851 25.13 20 68 50 9.5 49.1 20.38 0.802
18:15 1022 30.18 852 25.16 19.9 67.9 53 10.3 50.6 20.35 0.801
18:16 1022 30.18 851 25.13 19.9 67.8 55 10.6 51.2 20.28 0.798
18:17 1022 30.18 852 25.16 19.8 67.7 55 10.7 51.3 20.21 0.796
18:18 1022 30.18 852 25.16 19.7 67.5 56 10.7 51.2 20.12 0.792
18:19 1022 30.18 852 25.16 19.5 67.2 56 10.7 51.3 20 0.787
18:20 1022 30.18 852 25.16 19.5 67 56 10.5 50.9 19.88 0.783
18:21 1022 30.18 852 25.16 19.4 66.9 55 10.2 50.3 19.76 0.778
18:22 1022 30.18 852 25.16 19.3 66.7 55 10.2 50.4 19.72 0.776
18:23 1022 30.18 852 25.16 19.3 66.7 54 9.8 49.6 19.64 0.773
18:24 1022 30.18 852 25.16 19.2 66.6 53 9.4 48.9 19.59 0.771
18:25 1022 30.18 852 25.16 19.3 66.7 49 8.4 47.2 19.61 0.772
18:26 1022 30.18 852 25.16 19.3 66.7 51 9.1 48.4 19.64 0.773
18:27 1022 30.18 852 25.16 19.3 66.8 51 9 48.2 19.67 0.774
18:28 1022 30.18 852 25.16 19.3 66.8 52 9.5 49.1 19.67 0.774
18:29 1022 30.18 852 25.16 19.2 66.6 54 9.8 49.7 19.62 0.772
18:30 1022 30.18 852 25.16 19.2 66.5 54 9.8 49.7 19.5 0.768
18:31 1022 30.18 852 25.16 19.1 66.3 55 9.9 49.8 19.4 0.764
18:32 1022 30.18 852 25.16 18.9 66.1 54 9.6 49.3 19.32 0.761
18:33 1022 30.18 852 25.16 18.9 65.9 50 8.5 47.2 19.24 0.757
18:34 1022 30.18 852 25.16 18.9 66.1 49 8.2 46.8 19.23 0.757
18:35 1022 30.18 852 25.16 19 66.1 52 9.1 48.4 19.28 0.759
18:36 1022 30.18 852 25.16 18.9 66 54 9.5 49.2 19.23 0.757
18:37 1022 30.18 852 25.16 18.7 65.7 55 9.5 49.1 19.03 0.749
18:38 1022 30.18 852 25.16 18.5 65.4 56 9.6 49.3 18.88 0.743
18:39 1022 30.18 852 25.16 18.3 65 55 9.2 48.6 18.72 0.737
18:40 1022 30.18 852 25.16 18.3 64.9 55 9.1 48.4 18.56 0.731
18:41 1022 30.18 852 25.16 18.1 64.6 54 8.7 47.7 18.42 0.725
18:42 1023 30.21 852 25.16 18 64.3 58 9.7 49.5 18.29 0.72
18:43 1023 30.21 852 25.16 17.8 64.1 58 9.6 49.3 18.12 0.713
18:44 1023 30.21 852 25.16 17.7 63.9 58 9.4 49 17.98 0.708
18:45 1023 30.21 852 25.16 17.8 64 57 9.1 48.4 17.99 0.708
18:46 1023 30.21 852 25.16 17.8 64 57 9.3 48.7 17.94 0.706
18:47 1023 30.21 852 25.16 17.5 63.5 59 9.5 49.1 17.64 0.694
18:48 1023 30.21 852 25.16 17.1 62.8 59 9.2 48.6 17.31 0.681
18:49 1023 30.21 852 25.16 16.7 62.1 61 9.1 48.4 16.87 0.664
18:50 1023 30.21 852 25.16 16.3 61.4 61 8.8 47.9 16.5 0.65
18:51 1023 30.21 852 25.16 16 60.8 62 8.7 47.7 16.21 0.638
18:52 1023 30.21 852 25.16 15.8 60.5 63 9 48.1 16.03 0.631
18:53 1023 30.21 852 25.16 15.6 60.1 65 9.1 48.4 15.87 0.625
18:54 1023 30.21 852 25.16 15.3 59.6 67 9.3 48.7 15.6 0.614
18:55 1023 30.21 852 25.16 15 58.9 68 9.2 48.5 15.27 0.601
18:56 1023 30.21 852 25.16 14.6 58.3 69 9 48.2 14.93 0.588
18:57 1023 30.21 852 25.16 14.5 58 69 8.9 48 14.74 0.58
18:58 1023 30.21 852 25.16 14.3 57.8 70 8.9 48 14.6 0.575
18:59 1023 30.21 852 25.16 14.2 57.5 70 8.8 47.9 14.44 0.569
19:00 1023 30.21 852 25.16 13.9 57.1 70 8.6 47.5 14.26 0.561
19:01 1023 30.21 852 25.16 13.6 56.5 71 8.5 47.3 13.95 0.549
19:02 1023 30.21 852 25.16 13.4 56.1 70 8.2 46.7 13.68 0.539
19:03 1023 30.21 852 25.16 13.4 56 70 8 46.4 13.62 0.536
19:04 1023 30.21 852 25.16 13.3 56 70 8 46.4 13.61 0.536
19:05 1023 30.21 852 25.16 13.4 56.1 71 8.3 46.9 13.68 0.539
19:06 1023 30.21 852 25.16 13.4 56.1 72 8.4 47.1 13.67 0.538
19:07 1023 30.21 852 25.16 13.4 56 72 8.4 47.1 13.68 0.539
19:08 1023 30.21 852 25.16 13.4 56.1 72 8.4 47.2 13.7 0.539
19:09 1023 30.21 852 25.16 13.4 56 72 8.5 47.2 13.67 0.538
19:10 1023 30.21 852 25.16 13.4 56.1 72 8.5 47.3 13.7 0.539
19:11 1023 30.21 852 25.16 13.4 56.1 72 8.5 47.2 13.69 0.539
19:12 1023 30.21 852 25.16 13.3 55.9 73 8.5 47.2 13.59 0.535
19:13 1023 30.21 852 25.16 13.1 55.5 74 8.5 47.3 13.39 0.527
19:14 1023 30.21 852 25.16 12.8 55 74 8.4 47.1 13.19 0.519
19:15 1023 30.21 852 25.16 12.5 54.6 75 8.3 46.9 12.93 0.509
19:16 1023 30.21 852 25.16 12.3 54.1 76 8.2 46.8 12.69 0.5
19:17 1023 30.21 852 25.16 12.1 53.7 77 8.2 46.7 12.46 0.491
19:18 1023 30.21 852 25.16 12.1 53.8 75 7.9 46.2 12.48 0.491
19:19 1023 30.21 852 25.16 12.3 54.1 74 7.8 46.1 12.59 0.496
19:20 1023 30.21 852 25.16 12.4 54.3 74 7.9 46.3 12.65 0.498
19:21 1023 30.21 852 25.16 12.2 54 75 7.9 46.2 12.56 0.494
19:22 1023 30.21 852 25.16 12 53.6 76 7.9 46.3 12.37 0.487
19:23 1023 30.21 852 25.16 11.9 53.4 76 7.9 46.1 12.24 0.482
19:24 1023 30.21 852 25.16 11.8 53.2 77 7.9 46.2 12.11 0.477
19:25 1023 30.21 852 25.16 11.7 53.1 77 7.8 46.1 12.07 0.475
19:26 1023 30.21 852 25.16 11.6 52.9 77 7.8 46 11.98 0.472
19:27 1023 30.21 852 25.16 11.5 52.8 77 7.8 46 11.92 0.469
19:28 1023 30.21 852 25.16 11.6 52.8 77 7.7 45.8 11.93 0.47
19:29 1023 30.21 852 25.16 11.6 52.8 77 7.7 45.8 11.94 0.47
19:30 1023 30.21 852 25.16 11.5 52.6 77 7.7 45.8 11.81 0.465
19:31 1023 30.21 852 25.16 11.2 52.2 79 7.7 45.9 11.64 0.458
19:32 1023 30.21 852 25.16 11.2 52.2 78 7.6 45.7 11.61 0.457
19:33 1023 30.21 852 25.16 11.2 52.2 78 7.6 45.7 11.59 0.456
19:34 1023 30.21 852 25.16 11.2 52.1 78 7.5 45.4 11.51 0.453
19:35 1023 30.21 852 25.16 11.1 52 79 7.6 45.6 11.45 0.451
19:36 1023 30.21 852 25.16 11 51.9 79 7.6 45.7 11.39 0.448
19:37 1023 30.21 852 25.16 11 51.7 80 7.6 45.7 11.33 0.446
19:38 1023 30.21 852 25.16 10.8 51.5 80 7.6 45.6 11.2 0.441
19:39 1023 30.21 852 25.16 10.6 51 81 7.4 45.4 10.96 0.431
19:40 1023 30.21 852 25.16 10.4 50.7 82 7.4 45.4 10.77 0.424
19:41 1023 30.21 852 25.16 10.2 50.4 83 7.5 45.4 10.61 0.418
19:42 1023 30.21 852 25.16 10.1 50.2 83 7.4 45.3 10.51 0.414
19:43 1023 30.21 852 25.16 10 50 83 7.3 45.2 10.39 0.409
19:44 1023 30.21 852 25.16 9.9 49.8 84 7.3 45.1 10.31 0.406
19:45 1023 30.21 852 25.16 9.8 49.7 84 7.3 45.1 10.2 0.402
19:46 1023 30.21 852 25.16 9.7 49.5 84 7.2 45 10.16 0.4
19:47 1023 30.21 852 25.16 9.7 49.5 85 7.3 45.2 10.13 0.399
19:48 1023 30.21 852 25.16 9.8 49.6 84 7.3 45.1 10.16 0.4
19:49 1023 30.21 852 25.16 9.8 49.7 84 7.3 45.1 10.19 0.401
19:50 1023 30.21 852 25.16 9.9 49.9 83 7.3 45.1 10.28 0.405
19:51 1023 30.21 852 25.16 10 50.1 83 7.3 45.2 10.37 0.408
19:52 1023 30.21 852 25.16 10.3 50.5 82 7.3 45.2 10.55 0.415
19:53 1023 30.21 852 25.16 10.4 50.7 81 7.3 45.2 10.71 0.422
19:54 1023 30.21 852 25.16 10.5 50.9 80 7.2 45 10.8 0.425
19:55 1023 30.21 852 25.16 10.5 51 80 7.2 44.9 10.79 0.425
19:56 1023 30.21 853 25.19 10.6 51 79 7.1 44.8 10.87 0.428
19:57 1023 30.21 853 25.19 10.7 51.2 78 7 44.6 10.92 0.43
19:58 1023 30.21 853 25.19 10.7 51.2 78 7 44.6 10.92 0.43
19:59 1023 30.21 853 25.19 10.4 50.8 79 7 44.6 10.75 0.423
20:00 1023 30.21 853 25.19 10.3 50.5 79 6.8 44.3 10.6 0.417
20:01 1023 30.21 853 25.19 10.1 50.2 80 6.8 44.3 10.48 0.413
20:02 1023 30.21 853 25.19 10.1 50.3 79 6.8 44.2 10.51 0.414
20:03 1023 30.21 853 25.19 10.2 50.4 79 6.7 44.1 10.53 0.415
20:04 1023 30.21 853 25.19 10.3 50.5 79 6.7 44.1 10.57 0.416
20:05 1023 30.21 853 25.19 10.3 50.6 78 6.7 44.1 10.61 0.418
20:06 1024 30.24 853 25.19 10.3 50.6 78 6.7 44.1 10.61 0.418
20:07 1024 30.24 853 25.19 10.3 50.6 78 6.6 43.9 10.65 0.419
20:08 1024 30.24 853 25.19 10.4 50.8 77 6.7 44 10.74 0.423
20:09 1024 30.24 853 25.19 10.5 50.8 77 6.6 43.9 10.79 0.425
20:10 1024 30.24 853 25.19 10.5 50.9 77 6.6 44 10.82 0.426
20:11 1024 30.24 853 25.19 10.7 51.2 76 6.7 44 10.98 0.432
20:12 1024 30.24 853 25.19 10.8 51.4 75 6.6 43.9 11.1 0.437
20:13 1024 30.24 853 25.19 10.8 51.4 76 6.6 44 11.06 0.435
20:14 1024 30.24 853 25.19 10.7 51.3 75 6.6 43.8 11.05 0.435
20:15 1024 30.24 853 25.19 10.6 51.1 76 6.5 43.8 10.93 0.43
20:16 1024 30.24 853 25.19 10.5 50.8 77 6.6 43.9 10.77 0.424
20:17 1024 30.24 853 25.19 10.3 50.6 78 6.6 43.9 10.72 0.422
20:18 1024 30.24 853 25.19 10.3 50.6 77 6.6 43.8 10.66 0.42
20:19 1024 30.24 853 25.19 10.4 50.6 77 6.5 43.7 10.68 0.42
20:20 1024 30.24 853 25.19 10.5 50.9 77 6.6 43.8 10.8 0.425
20:21 1024 30.24 853 25.19 10.6 51.1 76 6.6 43.8 10.92 0.43
20:22 1024 30.24 853 25.19 10.6 51.1 76 6.5 43.7 10.94 0.431
20:23 1024 30.24 853 25.19 10.6 51.1 76 6.5 43.7 10.95 0.431
20:24 1024 30.24 853 25.19 10.6 51.2 76 6.6 43.8 10.96 0.431
20:25 1024 30.24 853 25.19 10.6 51.1 76 6.6 43.8 11.02 0.434
20:26 1024 30.24 853 25.19 10.6 51.1 76 6.5 43.7 10.97 0.432
20:27 1024 30.24 853 25.19 10.6 51.1 76 6.6 43.8 10.99 0.433
20:28 1024 30.24 853 25.19 10.6 51 77 6.6 43.9 10.88 0.428
20:29 1024 30.24 853 25.19 10.4 50.8 77 6.6 43.9 10.8 0.425
20:30 1024 30.24 853 25.19 10.3 50.6 77 6.5 43.7 10.74 0.423
20:31 1024 30.24 853 25.19 10.3 50.5 77 6.5 43.8 10.68 0.42
20:32 1024 30.24 853 25.19 10.2 50.4 77 6.5 43.7 10.65 0.419
20:33 1024 30.24 853 25.19 10.3 50.5 77 6.5 43.7 10.66 0.42
20:34 1024 30.24 853 25.19 10.3 50.5 77 6.5 43.7 10.66 0.42
20:35 1024 30.24 853 25.19 10.2 50.4 77 6.5 43.7 10.61 0.418
20:36 1024 30.24 853 25.19 10.2 50.3 78 6.4 43.6 10.6 0.417
20:37 1024 30.24 853 25.19 10.2 50.4 77 6.5 43.7 10.57 0.416
20:38 1024 30.24 853 25.19 10.3 50.5 77 6.5 43.7 10.65 0.419
20:39 1024 30.24 853 25.19 10.3 50.5 77 6.4 43.6 10.63 0.419
20:40 1024 30.24 853 25.19 10.3 50.5 77 6.4 43.4 10.64 0.419
20:41 1024 30.24 853 25.19 10.3 50.6 76 6.4 43.5 10.68 0.42
20:42 1024 30.24 853 25.19 10.4 50.7 76 6.4 43.5 10.71 0.422
20:43 1024 30.24 853 25.19 10.3 50.6 77 6.4 43.5 10.67 0.42
20:44 1024 30.24 853 25.19 10.2 50.3 77 6.4 43.5 10.57 0.416
20:45 1024 30.24 853 25.19 10.1 50.1 78 6.4 43.5 10.43 0.411
20:46 1024 30.24 853 25.19 10 49.9 78 6.3 43.4 10.33 0.407
20:47 1024 30.24 853 25.19 9.8 49.7 78 6.3 43.3 10.22 0.402
20:48 1024 30.24 853 25.19 9.8 49.6 79 6.2 43.2 10.12 0.398
20:49 1024 30.24 853 25.19 9.7 49.4 79 6.1 43.1 10.04 0.395
20:50 1024 30.24 853 25.19 9.6 49.3 79 6.1 42.9 9.98 0.393
20:51 1024 30.24 853 25.19 9.6 49.3 79 6.1 42.9 9.98 0.393
20:52 1024 30.24 853 25.19 9.6 49.3 78 6 42.8 9.98 0.393
20:53 1024 30.24 853 25.19 9.8 49.6 78 6.1 42.9 10.12 0.398
20:54 1024 30.24 853 25.19 9.8 49.7 77 6 42.8 10.24 0.403
20:55 1024 30.24 853 25.19 9.9 49.9 76 6 42.8 10.29 0.405
20:56 1024 30.24 853 25.19 10 50 76 6 42.8 10.32 0.406
20:57 1024 30.24 853 25.19 10 50 76 6 42.8 10.36 0.408
20:58 1024 30.24 853 25.19 10 50 76 5.9 42.6 10.38 0.409
20:59 1024 30.24 853 25.19 10 50.1 75 5.8 42.5 10.38 0.409
21:00 1024 30.24 853 25.19 10.1 50.3 75 5.8 42.5 10.49 0.413
21:01 1024 30.24 853 25.19 10.2 50.4 74 5.9 42.6 10.53 0.415
21:02 1024 30.24 853 25.19 10.3 50.5 74 5.9 42.6 10.65 0.419
21:03 1024 30.24 853 25.19 10.4 50.7 74 5.9 42.7 10.74 0.423
21:04 1024 30.24 853 25.19 10.5 50.8 73 5.9 42.6 10.77 0.424
21:05 1024 30.24 853 25.19 10.5 50.9 73 5.8 42.5 10.86 0.428
21:06 1024 30.24 853 25.19 10.6 51.1 72 5.7 42.3 10.96 0.431
21:07 1024 30.24 853 25.19 10.8 51.4 70 5.7 42.2 11.11 0.437
21:08 1024 30.24 853 25.19 11 51.8 69 5.7 42.2 11.31 0.445
21:09 1024 30.24 853 25.19 11.1 52 69 5.7 42.2 11.46 0.451
21:10 1024 30.24 853 25.19 11.3 52.3 68 5.6 42.1 11.59 0.456
21:11 1024 30.24 853 25.19 11.6 53 66 5.6 42.1 11.9 0.469
21:12 1024 30.24 853 25.19 12 53.5 66 5.8 42.4 12.19 0.48
21:13 1024 30.24 853 25.19 12.2 53.9 65 5.7 42.3 12.35 0.486
21:14 1024 30.24 853 25.19 12.5 54.4 62 5.6 42 12.67 0.499
21:15 1024 30.24 853 25.19 12.9 55.1 61 5.5 41.9 13.07 0.515
21:16 1024 30.24 853 25.19 13.3 56 59 5.6 42.2 13.48 0.531
21:17 1024 30.24 853 25.19 13.7 56.6 59 5.8 42.4 13.78 0.543
21:18 1024 30.24 853 25.19 13.8 56.8 59 6 42.7 13.95 0.549
21:19 1024 30.24 853 25.19 13.7 56.6 60 6 42.8 13.87 0.546
21:20 1024 30.24 853 25.19 13.5 56.2 59 5.6 42.2 13.74 0.541
21:21 1024 30.24 853 25.19 13.5 56.3 59 5.7 42.2 13.76 0.542
21:22 1024 30.24 853 25.19 13.5 56.3 59 5.8 42.4 13.76 0.542
21:23 1024 30.24 853 25.19 13.5 56.3 59 5.7 42.3 13.75 0.541
21:24 1024 30.24 853 25.19 13.5 56.3 59 5.7 42.3 13.74 0.541
21:25 1024 30.24 853 25.19 13.5 56.3 59 5.6 42.1 13.77 0.542
21:26 1024 30.24 853 25.19 13.5 56.3 59 5.7 42.2 13.81 0.544
21:27 1024 30.24 853 25.19 13.5 56.3 60 5.9 42.6 13.78 0.543
21:28 1024 30.24 853 25.19 13.4 56.1 60 5.8 42.4 13.68 0.539
21:29 1024 30.24 853 25.19 13.3 56 60 5.8 42.4 13.61 0.536
21:30 1024 30.24 853 25.19 13.3 55.9 59 5.6 42 13.61 0.536
21:31 1024 30.24 853 25.19 13.5 56.4 58 5.6 42.1 13.85 0.545
21:32 1024 30.24 853 25.19 13.9 57.1 57 5.5 42 14.26 0.561
21:33 1024 30.24 853 25.19 14.4 57.8 55 5.5 41.9 14.7 0.579
21:34 1024 30.24 854 25.22 14.9 58.7 55 5.9 42.6 15.19 0.598
21:35 1024 30.24 854 25.22 15.2 59.3 54 6.1 43 15.44 0.608
21:36 1024 30.24 854 25.22 15.2 59.3 54 5.9 42.7 15.44 0.608
21:37 1024 30.24 854 25.22 15.1 59.2 55 6.4 43.5 15.44 0.608
21:38 1024 30.24 854 25.22 15.1 59.3 54 5.9 42.5 15.46 0.609
21:39 1024 30.24 854 25.22 15.2 59.4 54 6.1 42.9 15.57 0.613
21:40 1024 30.24 854 25.22 15.3 59.6 53 5.9 42.6 15.64 0.616
21:41 1024 30.24 854 25.22 15.4 59.8 53 5.9 42.7 15.77 0.621
21:42 1024 30.24 854 25.22 15.6 60 51 5.6 42.1 15.93 0.627
21:43 1024 30.24 854 25.22 15.8 60.4 51 5.8 42.4 16.07 0.633
21:44 1024 30.24 854 25.22 15.8 60.5 52 6 42.7 16.17 0.637
21:45 1024 30.24 854 25.22 15.8 60.5 51 5.9 42.6 16.16 0.636
21:46 1024 30.24 854 25.22 15.8 60.5 52 6 42.8 16.19 0.637
21:47 1024 30.24 854 25.22 15.8 60.4 52 6 42.7 16.12 0.635
21:48 1024 30.24 854 25.22 15.8 60.4 51 5.9 42.6 16.14 0.635
21:49 1024 30.24 854 25.22 15.7 60.3 51 5.8 42.5 16.08 0.633
21:50 1024 30.24 854 25.22 15.8 60.4 51 5.8 42.4 16.11 0.634
21:51 1024 30.24 854 25.22 15.8 60.5 51 5.6 42.2 16.17 0.637
21:52 1024 30.24 854 25.22 15.9 60.6 51 5.8 42.4 16.25 0.64
21:53 1024 30.24 854 25.22 16 60.8 50 5.7 42.3 16.42 0.646
21:54 1024 30.24 854 25.22 16.2 61.1 50 5.9 42.6 16.5 0.65
21:55 1024 30.24 854 25.22 16.2 61.1 50 5.9 42.6 16.56 0.652
21:56 1025 30.27 854 25.22 16.2 61.1 50 5.9 42.6 16.54 0.651
21:57 1024 30.24 854 25.22 16.1 61.1 50 5.8 42.4 16.44 0.647
21:58 1024 30.24 854 25.22 16.1 61 50 5.8 42.4 16.44 0.647
21:59 1024 30.24 854 25.22 16.2 61.1 50 5.7 42.2 16.53 0.651
22:00 1024 30.24 854 25.22 16.2 61.2 49 5.7 42.3 16.57 0.652
22:01 1025 30.27 854 25.22 16.3 61.3 49 5.7 42.3 16.65 0.656
22:02 1025 30.27 854 25.22 16.4 61.5 49 5.8 42.5 16.73 0.659
22:03 1025 30.27 854 25.22 16.4 61.5 49 5.9 42.6 16.74 0.659
22:04 1025 30.27 854 25.22 16.4 61.5 49 5.8 42.5 16.73 0.659
22:05 1025 30.27 854 25.22 16.3 61.4 50 6 42.9 16.67 0.656
22:06 1025 30.27 854 25.22 16.2 61.2 50 5.9 42.6 16.59 0.653
22:07 1025 30.27 854 25.22 16.2 61.2 50 6 42.7 16.59 0.653
22:08 1025 30.27 854 25.22 16.1 61 51 6.1 42.9 16.46 0.648
22:09 1025 30.27 854 25.22 16 60.9 51 5.9 42.6 16.43 0.647
22:10 1025 30.27 854 25.22 16.1 60.9 51 5.9 42.7 16.43 0.647
22:11 1025 30.27 854 25.22 16 60.9 51 5.9 42.7 16.44 0.647
22:12 1025 30.27 854 25.22 16 60.8 52 6.2 43.1 16.38 0.645
22:13 1025 30.27 854 25.22 15.8 60.5 52 6.1 43 16.14 0.635
22:14 1025 30.27 854 25.22 15.7 60.3 52 5.9 42.7 16.14 0.635
22:15 1025 30.27 854 25.22 15.8 60.4 52 6.2 43.1 16.15 0.636
22:16 1025 30.27 854 25.22 15.7 60.3 52 6 42.8 16.14 0.635
22:17 1025 30.27 854 25.22 15.8 60.4 52 6.1 42.9 16.08 0.633
22:18 1025 30.27 854 25.22 15.7 60.2 52 6 42.8 16.07 0.633
22:19 1025 30.27 854 25.22 15.7 60.3 52 6 42.8 16.11 0.634
22:20 1025 30.27 854 25.22 15.8 60.4 52 6 42.8 16.15 0.636
22:21 1025 30.27 854 25.22 15.9 60.5 52 6.2 43.1 16.2 0.638
22:22 1025 30.27 854 25.22 15.9 60.5 52 6.1 42.9 16.17 0.637
22:23 1025 30.27 854 25.22 15.9 60.5 52 6.2 43.1 16.28 0.641
22:24 1025 30.27 854 25.22 15.8 60.4 53 6.3 43.3 16.12 0.635
22:25 1025 30.27 854 25.22 15.7 60.3 52 6.1 42.9 16.09 0.633
22:26 1025 30.27 854 25.22 15.8 60.4 52 6.1 42.9 16.19 0.637
22:27 1025 30.27 854 25.22 15.9 60.6 52 6.3 43.3 16.25 0.64
22:28 1025 30.27 854 25.22 15.9 60.5 52 6.1 43 16.21 0.638
22:29 1025 30.27 854 25.22 15.9 60.7 51 6 42.8 16.33 0.643
22:30 1025 30.27 854 25.22 16 60.8 52 6.1 43.1 16.37 0.644
22:31 1025 30.27 854 25.22 16 60.7 51 6.1 42.9 16.33 0.643
22:32 1025 30.27 854 25.22 15.9 60.7 52 6.2 43.2 16.29 0.641
22:33 1025 30.27 854 25.22 15.8 60.5 53 6.2 43.2 16.16 0.636
22:34 1025 30.27 854 25.22 15.7 60.3 53 6.3 43.4 16.05 0.632
22:35 1025 30.27 854 25.22 15.7 60.2 53 6.1 43.1 16.02 0.631
22:36 1025 30.27 854 25.22 15.7 60.2 53 6.3 43.3 16.01 0.63
22:37 1025 30.27 854 25.22 15.6 60 53 6.2 43.1 15.92 0.627
22:38 1025 30.27 854 25.22 15.6 60 53 6.1 42.9 15.96 0.628
22:39 1025 30.27 854 25.22 15.7 60.2 52 6 42.9 16.04 0.631
22:40 1025 30.27 854 25.22 15.7 60.2 53 6.1 43.1 16.04 0.631
22:41 1025 30.27 854 25.22 15.7 60.2 53 6.1 43.1 16.03 0.631
22:42 1025 30.27 854 25.22 15.7 60.2 52 6.1 42.9 16.04 0.631
22:43 1025 30.27 854 25.22 15.7 60.2 52 6 42.7 16.05 0.632
22:44 1025 30.27 854 25.22 15.8 60.4 53 6.2 43.2 16.19 0.637
22:45 1025 30.27 854 25.22 15.8 60.4 52 6.2 43.1 16.16 0.636
22:46 1025 30.27 854 25.22 15.7 60.3 52 6.1 43 16.13 0.635
22:47 1025 30.27 854 25.22 15.7 60.2 52 6.1 42.9 16.08 0.633
22:48 1025 30.27 854 25.22 15.7 60.3 52 6.1 43 16.11 0.634
22:49 1025 30.27 854 25.22 15.7 60.3 53 6.1 43.1 16.05 0.632
22:50 1025 30.27 854 25.22 15.7 60.2 53 6.1 43 16 0.63
22:51 1025 30.27 854 25.22 15.7 60.2 52 6.1 42.9 16.03 0.631
22:52 1025 30.27 854 25.22 15.7 60.2 53 6.1 43 16.05 0.632
22:53 1025 30.27 854 25.22 15.7 60.3 53 6.1 43 16.06 0.632
22:54 1025 30.27 854 25.22 15.7 60.2 52 6.1 42.9 16.04 0.631
22:55 1025 30.27 854 25.22 15.7 60.2 53 6.2 43.1 16.02 0.631
22:56 1025 30.27 854 25.22 15.6 60.2 52 6 42.7 16.01 0.63
22:57 1025 30.27 854 25.22 15.7 60.2 53 6.2 43.2 16.04 0.631
22:58 1025 30.27 854 25.22 15.6 60.1 53 6.1 43 15.96 0.628
22:59 1025 30.27 854 25.22 15.6 60.1 53 6.1 43.1 15.99 0.63
23:00 1025 30.27 854 25.22 15.6 60.1 53 6.2 43.1 15.97 0.629
23:01 1025 30.27 854 25.22 15.6 60.2 52 6 42.8 16.05 0.632
23:02 1025 30.27 854 25.22 15.7 60.3 52 6.1 42.9 16.14 0.635
23:03 1025 30.27 854 25.22 15.8 60.4 52 6.1 42.9 16.17 0.637
23:04 1025 30.27 854 25.22 15.8 60.4 52 6.1 43 16.09 0.633
23:05 1025 30.27 854 25.22 15.7 60.2 53 6.1 43 16.05 0.632
23:06 1025 30.27 854 25.22 15.6 60.1 53 6 42.9 15.99 0.63
23:07 1025 30.27 854 25.22 15.6 60.2 53 6.2 43.1 16 0.63
23:08 1025 30.27 854 25.22 15.6 60.1 53 6 42.9 15.98 0.629
23:09 1025 30.27 855 25.25 15.6 60.1 54 6.3 43.3 15.93 0.627
23:10 1025 30.27 855 25.25 15.5 59.9 53 6.1 43 15.83 0.623
23:11 1025 30.27 855 25.25 15.5 59.9 53 6.1 43 15.91 0.626
23:12 1025 30.27 855 25.25 15.5 60 53 6.1 42.9 15.91 0.626
23:13 1025 30.27 855 25.25 15.5 59.9 53 5.9 42.7 15.91 0.626
23:14 1025 30.27 855 25.25 15.6 60 53 6.1 42.9 15.92 0.627
23:15 1025 30.27 855 25.25 15.6 60 53 6.1 43 15.96 0.628
23:16 1025 30.27 855 25.25 15.6 60 53 6.1 43 15.88 0.625
23:17 1025 30.27 855 25.25 15.6 60 53 6.1 42.9 15.91 0.626
23:18 1025 30.27 855 25.25 15.6 60 53 6 42.8 16.01 0.63
23:19 1025 30.27 855 25.25 15.6 60 53 6 42.8 15.94 0.628
23:20 1025 30.27 855 25.25 15.6 60 53 6.1 43 15.93 0.627
23:21 1025 30.27 855 25.25 15.6 60 53 6 42.9 15.93 0.627
23:22 1025 30.27 855 25.25 15.5 60 54 6.2 43.2 15.86 0.624
23:23 1025 30.27 855 25.25 15.4 59.7 53 6 42.8 15.78 0.621
23:24 1025 30.27 855 25.25 15.5 59.8 53 6.1 43 15.83 0.623
23:25 1025 30.27 855 25.25 15.5 59.8 53 6 42.8 15.84 0.624
23:26 1025 30.27 855 25.25 15.5 59.8 53 6 42.8 15.83 0.623
23:27 1025 30.27 855 25.25 15.5 59.9 53 5.9 42.7 15.87 0.625
23:28 1025 30.27 855 25.25 15.5 59.9 52 5.9 42.6 15.91 0.626
23:29 1025 30.27 855 25.25 15.5 59.9 52 5.9 42.7 15.92 0.627
23:30 1025 30.27 855 25.25 15.6 60 53 6.1 43 15.89 0.626
23:31 1025 30.27 855 25.25 15.5 59.9 53 5.9 42.7 15.84 0.624
23:32 1025 30.27 855 25.25 15.5 60 52 5.9 42.6 15.92 0.627
23:33 1025 30.27 855 25.25 15.6 60.1 52 6 42.8 15.93 0.627
23:34 1025 30.27 855 25.25 15.5 60 53 6.1 43 15.88 0.625
23:35 1025 30.27 855 25.25 15.5 59.9 53 6.1 42.9 15.83 0.623
23:36 1025 30.27 855 25.25 15.4 59.8 53 6 42.8 15.81 0.622
23:37 1025 30.27 855 25.25 15.5 59.9 53 6 42.8 15.83 0.623
23:38 1025 30.27 855 25.25 15.5 59.8 53 6.1 43 15.78 0.621
23:39 1025 30.27 855 25.25 15.3 59.6 54 6.1 42.9 15.67 0.617
23:40 1025 30.27 855 25.25 15.3 59.5 53 6 42.7 15.66 0.617
23:41 1025 30.27 855 25.25 15.3 59.5 54 6 42.8 15.69 0.618
23:42 1025 30.27 855 25.25 15.3 59.5 54 6.1 43 15.68 0.617
23:43 1025 30.27 855 25.25 15.2 59.4 54 6.2 43.1 15.6 0.614
23:44 1025 30.27 855 25.25 15.2 59.4 54 6 42.9 15.6 0.614
23:45 1025 30.27 855 25.25 15.2 59.4 54 6.1 43.1 15.61 0.615
23:46 1026 30.3 855 25.25 15.2 59.3 54 6 42.8 15.55 0.612
23:47 1025 30.27 855 25.25 15.2 59.3 54 6 42.8 15.54 0.612
23:48 1026 30.3 855 25.25 15.2 59.3 54 6.1 43 15.58 0.613
23:49 1026 30.3 855 25.25 15.1 59.2 55 6.1 43.1 15.5 0.61
23:50 1026 30.3 855 25.25 15.1 59.1 54 6 42.8 15.44 0.608
23:51 1026 30.3 855 25.25 15.1 59.1 54 6.1 42.9 15.45 0.608
23:52 1026 30.3 855 25.25 15.1 59.1 54 6 42.8 15.45 0.608
23:53 1026 30.3 855 25.25 15 59.1 54 6 42.8 15.4 0.606
23:54 1025 30.27 855 25.25 15 59 54 6 42.7 15.39 0.606
23:55 1026 30.3 855 25.25 15.1 59.1 54 5.9 42.7 15.44 0.608
23:56 1025 30.27 855 25.25 15.1 59.2 54 6 42.8 15.44 0.608
23:57 1026 30.3 855 25.25 15.1 59.1 54 6 42.9 15.42 0.607
23:58 1026 30.3 855 25.25 15 59.1 55 6 42.9 15.4 0.606
23:59 1026 30.3 855 25.25 15.1 59.1 55 6.2 43.1 15.36 0.605
24:00 1026 30.3 855 25.25 15 59 55 6.2 43.1 15.37 0.605